<?xml version='1.0' encoding='UTF-8'?>
<gpx version="1.1" creator="https://www.komoot.de" xmlns="http://www.topografix.com/GPX/1/1" xmlns:xsi="http://www.w3.org/2001/XMLSchema-instance" xsi:schemaLocation="http://www.topografix.com/GPX/1/1 http://www.topografix.com/GPX/1/1/gpx.xsd">
  <metadata>
    <name>Gower Bike Ride 34 (50km)</name>
    <author>
      <link href="https://www.komoot.de">
        <text>komoot</text>
        <type>text/html</type>
      </link>
    </author>
  </metadata>
  <trk>
    <name>Gower Bike Ride 34 (50km)</name>
    <trkseg>
      <trkpt lat="51.611682" lon="-3.967272">
        <ele>3.755980</ele>
        <time>2026-05-05T12:19:34.585Z</time>
      </trkpt>
      <trkpt lat="51.611788" lon="-3.966728">
        <ele>3.755980</ele>
        <time>2026-05-05T12:19:39.195Z</time>
      </trkpt>
      <trkpt lat="51.611991" lon="-3.965374">
        <ele>3.709088</ele>
        <time>2026-05-05T12:19:49.366Z</time>
      </trkpt>
      <trkpt lat="51.612018" lon="-3.965076">
        <ele>3.681658</ele>
        <time>2026-05-05T12:19:51.742Z</time>
      </trkpt>
      <trkpt lat="51.611964" lon="-3.965061">
        <ele>3.673621</ele>
        <time>2026-05-05T12:19:52.414Z</time>
      </trkpt>
      <trkpt lat="51.611878" lon="-3.965043">
        <ele>3.660901</ele>
        <time>2026-05-05T12:19:53.543Z</time>
      </trkpt>
      <trkpt lat="51.611855" lon="-3.965430">
        <ele>3.625492</ele>
        <time>2026-05-05T12:19:56.774Z</time>
      </trkpt>
      <trkpt lat="51.611717" lon="-3.966469">
        <ele>3.528718</ele>
        <time>2026-05-05T12:20:07.146Z</time>
      </trkpt>
      <trkpt lat="51.611574" lon="-3.967202">
        <ele>3.575643</ele>
        <time>2026-05-05T12:20:16.375Z</time>
      </trkpt>
      <trkpt lat="51.611344" lon="-3.968004">
        <ele>3.776544</ele>
        <time>2026-05-05T12:20:27.020Z</time>
      </trkpt>
      <trkpt lat="51.611273" lon="-3.968251">
        <ele>3.838443</ele>
        <time>2026-05-05T12:20:29.995Z</time>
      </trkpt>
      <trkpt lat="51.609665" lon="-3.972497">
        <ele>3.859787</ele>
        <time>2026-05-05T12:21:12.590Z</time>
      </trkpt>
      <trkpt lat="51.609601" lon="-3.972811">
        <ele>3.954907</ele>
        <time>2026-05-05T12:21:15.943Z</time>
      </trkpt>
      <trkpt lat="51.609245" lon="-3.973816">
        <ele>4.287918</ele>
        <time>2026-05-05T12:21:28.490Z</time>
      </trkpt>
      <trkpt lat="51.608927" lon="-3.974717">
        <ele>4.704426</ele>
        <time>2026-05-05T12:21:40.672Z</time>
      </trkpt>
      <trkpt lat="51.608532" lon="-3.975805">
        <ele>5.517733</ele>
        <time>2026-05-05T12:21:55.529Z</time>
      </trkpt>
      <trkpt lat="51.607580" lon="-3.978425">
        <ele>7.130261</ele>
        <time>2026-05-05T12:22:31.474Z</time>
      </trkpt>
      <trkpt lat="51.606632" lon="-3.980985">
        <ele>7.680464</ele>
        <time>2026-05-05T12:23:00.697Z</time>
      </trkpt>
      <trkpt lat="51.606528" lon="-3.981275">
        <ele>7.686223</ele>
        <time>2026-05-05T12:23:03.567Z</time>
      </trkpt>
      <trkpt lat="51.606464" lon="-3.981358">
        <ele>7.688498</ele>
        <time>2026-05-05T12:23:04.643Z</time>
      </trkpt>
      <trkpt lat="51.606425" lon="-3.981466">
        <ele>7.690646</ele>
        <time>2026-05-05T12:23:05.718Z</time>
      </trkpt>
      <trkpt lat="51.605604" lon="-3.983712">
        <ele>7.449981</ele>
        <time>2026-05-05T12:23:27.944Z</time>
      </trkpt>
      <trkpt lat="51.605536" lon="-3.983887">
        <ele>7.425690</ele>
        <time>2026-05-05T12:23:29.933Z</time>
      </trkpt>
      <trkpt lat="51.605500" lon="-3.983986">
        <ele>7.412191</ele>
        <time>2026-05-05T12:23:31.000Z</time>
      </trkpt>
      <trkpt lat="51.605441" lon="-3.984132">
        <ele>7.391695</ele>
        <time>2026-05-05T12:23:32.606Z</time>
      </trkpt>
      <trkpt lat="51.605027" lon="-3.985336">
        <ele>7.315379</ele>
        <time>2026-05-05T12:23:45.770Z</time>
      </trkpt>
      <trkpt lat="51.604979" lon="-3.985600">
        <ele>7.304574</ele>
        <time>2026-05-05T12:23:48.413Z</time>
      </trkpt>
      <trkpt lat="51.604650" lon="-3.986477">
        <ele>7.264330</ele>
        <time>2026-05-05T12:23:57.598Z</time>
      </trkpt>
      <trkpt lat="51.604298" lon="-3.987419">
        <ele>7.085277</ele>
        <time>2026-05-05T12:24:06.793Z</time>
      </trkpt>
      <trkpt lat="51.604102" lon="-3.987874">
        <ele>6.937136</ele>
        <time>2026-05-05T12:24:11.463Z</time>
      </trkpt>
      <trkpt lat="51.603863" lon="-3.988308">
        <ele>6.781957</ele>
        <time>2026-05-05T12:24:16.310Z</time>
      </trkpt>
      <trkpt lat="51.603617" lon="-3.988678">
        <ele>6.636949</ele>
        <time>2026-05-05T12:24:20.798Z</time>
      </trkpt>
      <trkpt lat="51.602493" lon="-3.990156">
        <ele>6.030165</ele>
        <time>2026-05-05T12:24:39.992Z</time>
      </trkpt>
      <trkpt lat="51.602469" lon="-3.990184">
        <ele>6.017909</ele>
        <time>2026-05-05T12:24:40.379Z</time>
      </trkpt>
      <trkpt lat="51.602432" lon="-3.990231">
        <ele>5.998421</ele>
        <time>2026-05-05T12:24:40.992Z</time>
      </trkpt>
      <trkpt lat="51.602342" lon="-3.990342">
        <ele>5.951541</ele>
        <time>2026-05-05T12:24:42.495Z</time>
      </trkpt>
      <trkpt lat="51.601729" lon="-3.991144">
        <ele>5.774450</ele>
        <time>2026-05-05T12:24:53.452Z</time>
      </trkpt>
      <trkpt lat="51.600893" lon="-3.992240">
        <ele>5.988011</ele>
        <time>2026-05-05T12:25:10.202Z</time>
      </trkpt>
      <trkpt lat="51.600674" lon="-3.992523">
        <ele>6.043638</ele>
        <time>2026-05-05T12:25:15.126Z</time>
      </trkpt>
      <trkpt lat="51.600369" lon="-3.992907">
        <ele>6.125777</ele>
        <time>2026-05-05T12:25:21.821Z</time>
      </trkpt>
      <trkpt lat="51.599925" lon="-3.993358">
        <ele>6.244654</ele>
        <time>2026-05-05T12:25:30.355Z</time>
      </trkpt>
      <trkpt lat="51.599573" lon="-3.993676">
        <ele>6.336052</ele>
        <time>2026-05-05T12:25:36.955Z</time>
      </trkpt>
      <trkpt lat="51.599435" lon="-3.993801">
        <ele>6.371906</ele>
        <time>2026-05-05T12:25:39.430Z</time>
      </trkpt>
      <trkpt lat="51.598675" lon="-3.994486">
        <ele>6.422157</ele>
        <time>2026-05-05T12:25:51.787Z</time>
      </trkpt>
      <trkpt lat="51.598659" lon="-3.994499">
        <ele>6.418716</ele>
        <time>2026-05-05T12:25:52.026Z</time>
      </trkpt>
      <trkpt lat="51.598322" lon="-3.994768">
        <ele>6.346514</ele>
        <time>2026-05-05T12:25:57.157Z</time>
      </trkpt>
      <trkpt lat="51.598120" lon="-3.994886">
        <ele>6.305266</ele>
        <time>2026-05-05T12:26:00.136Z</time>
      </trkpt>
      <trkpt lat="51.597985" lon="-3.994937">
        <ele>6.278649</ele>
        <time>2026-05-05T12:26:02.068Z</time>
      </trkpt>
      <trkpt lat="51.597826" lon="-3.994931">
        <ele>6.248121</ele>
        <time>2026-05-05T12:26:04.258Z</time>
      </trkpt>
      <trkpt lat="51.597137" lon="-3.995195">
        <ele>6.216949</ele>
        <time>2026-05-05T12:26:14.073Z</time>
      </trkpt>
      <trkpt lat="51.596979" lon="-3.995259">
        <ele>6.287547</ele>
        <time>2026-05-05T12:26:16.712Z</time>
      </trkpt>
      <trkpt lat="51.596687" lon="-3.995378">
        <ele>6.418068</ele>
        <time>2026-05-05T12:26:21.817Z</time>
      </trkpt>
      <trkpt lat="51.596537" lon="-3.995532">
        <ele>6.495160</ele>
        <time>2026-05-05T12:26:24.823Z</time>
      </trkpt>
      <trkpt lat="51.596388" lon="-3.995624">
        <ele>6.564311</ele>
        <time>2026-05-05T12:26:27.564Z</time>
      </trkpt>
      <trkpt lat="51.596162" lon="-3.995763">
        <ele>6.669145</ele>
        <time>2026-05-05T12:26:31.837Z</time>
      </trkpt>
      <trkpt lat="51.596055" lon="-3.995836">
        <ele>6.719502</ele>
        <time>2026-05-05T12:26:33.933Z</time>
      </trkpt>
      <trkpt lat="51.595773" lon="-3.996008">
        <ele>6.850176</ele>
        <time>2026-05-05T12:26:39.373Z</time>
      </trkpt>
      <trkpt lat="51.595591" lon="-3.996086">
        <ele>6.924360</ele>
        <time>2026-05-05T12:26:42.666Z</time>
      </trkpt>
      <trkpt lat="51.595484" lon="-3.996165">
        <ele>6.928378</ele>
        <time>2026-05-05T12:26:44.764Z</time>
      </trkpt>
      <trkpt lat="51.595390" lon="-3.996237">
        <ele>6.931931</ele>
        <time>2026-05-05T12:26:46.524Z</time>
      </trkpt>
      <trkpt lat="51.595052" lon="-3.996500">
        <ele>6.944744</ele>
        <time>2026-05-05T12:26:52.553Z</time>
      </trkpt>
      <trkpt lat="51.594806" lon="-3.996693">
        <ele>6.954085</ele>
        <time>2026-05-05T12:26:56.796Z</time>
      </trkpt>
      <trkpt lat="51.594241" lon="-3.997001">
        <ele>6.974445</ele>
        <time>2026-05-05T12:27:06.033Z</time>
      </trkpt>
      <trkpt lat="51.594074" lon="-3.997093">
        <ele>6.980469</ele>
        <time>2026-05-05T12:27:08.384Z</time>
      </trkpt>
      <trkpt lat="51.593478" lon="-3.997419">
        <ele>6.800376</ele>
        <time>2026-05-05T12:27:15.761Z</time>
      </trkpt>
      <trkpt lat="51.592363" lon="-3.997927">
        <ele>6.366453</ele>
        <time>2026-05-05T12:27:31.683Z</time>
      </trkpt>
      <trkpt lat="51.591670" lon="-3.998194">
        <ele>6.470216</ele>
        <time>2026-05-05T12:27:43.371Z</time>
      </trkpt>
      <trkpt lat="51.591529" lon="-3.998260">
        <ele>6.511360</ele>
        <time>2026-05-05T12:27:46.343Z</time>
      </trkpt>
      <trkpt lat="51.590833" lon="-3.998588">
        <ele>6.714566</ele>
        <time>2026-05-05T12:28:01.147Z</time>
      </trkpt>
      <trkpt lat="51.590237" lon="-3.998823">
        <ele>6.446104</ele>
        <time>2026-05-05T12:28:08.410Z</time>
      </trkpt>
      <trkpt lat="51.589148" lon="-3.999228">
        <ele>4.814663</ele>
        <time>2026-05-05T12:28:20.473Z</time>
      </trkpt>
      <trkpt lat="51.587901" lon="-3.999690">
        <ele>4.950620</ele>
        <time>2026-05-05T12:28:36.989Z</time>
      </trkpt>
      <trkpt lat="51.587691" lon="-3.999805">
        <ele>5.148654</ele>
        <time>2026-05-05T12:28:42.013Z</time>
      </trkpt>
      <trkpt lat="51.587471" lon="-3.999985">
        <ele>5.368982</ele>
        <time>2026-05-05T12:28:47.878Z</time>
      </trkpt>
      <trkpt lat="51.587396" lon="-4.000084">
        <ele>5.455578</ele>
        <time>2026-05-05T12:28:50.406Z</time>
      </trkpt>
      <trkpt lat="51.587298" lon="-4.000034">
        <ele>5.547359</ele>
        <time>2026-05-05T12:28:52.782Z</time>
      </trkpt>
      <trkpt lat="51.587151" lon="-4.000031">
        <ele>5.678605</ele>
        <time>2026-05-05T12:28:56.496Z</time>
      </trkpt>
      <trkpt lat="51.586683" lon="-4.000167">
        <ele>6.336318</ele>
        <time>2026-05-05T12:29:09.255Z</time>
      </trkpt>
      <trkpt lat="51.585977" lon="-4.000452">
        <ele>7.479242</ele>
        <time>2026-05-05T12:29:25.874Z</time>
      </trkpt>
      <trkpt lat="51.585763" lon="-4.000519">
        <ele>7.821571</ele>
        <time>2026-05-05T12:29:30.132Z</time>
      </trkpt>
      <trkpt lat="51.585453" lon="-4.000651">
        <ele>8.325091</ele>
        <time>2026-05-05T12:29:35.682Z</time>
      </trkpt>
      <trkpt lat="51.584918" lon="-4.000880">
        <ele>8.488969</ele>
        <time>2026-05-05T12:29:44.099Z</time>
      </trkpt>
      <trkpt lat="51.584407" lon="-4.001056">
        <ele>8.301377</ele>
        <time>2026-05-05T12:29:51.677Z</time>
      </trkpt>
      <trkpt lat="51.584098" lon="-4.001182">
        <ele>8.186948</ele>
        <time>2026-05-05T12:29:55.980Z</time>
      </trkpt>
      <trkpt lat="51.584067" lon="-4.001195">
        <ele>8.175448</ele>
        <time>2026-05-05T12:29:56.378Z</time>
      </trkpt>
      <trkpt lat="51.583627" lon="-4.001364">
        <ele>8.013061</ele>
        <time>2026-05-05T12:30:01.931Z</time>
      </trkpt>
      <trkpt lat="51.583233" lon="-4.001447">
        <ele>7.676775</ele>
        <time>2026-05-05T12:30:06.657Z</time>
      </trkpt>
      <trkpt lat="51.582399" lon="-4.001429">
        <ele>6.820591</ele>
        <time>2026-05-05T12:30:16.902Z</time>
      </trkpt>
      <trkpt lat="51.581551" lon="-4.001347">
        <ele>6.019499</ele>
        <time>2026-05-05T12:30:27.189Z</time>
      </trkpt>
      <trkpt lat="51.581034" lon="-4.001236">
        <ele>5.695517</ele>
        <time>2026-05-05T12:30:33.650Z</time>
      </trkpt>
      <trkpt lat="51.580780" lon="-4.001179">
        <ele>5.536217</ele>
        <time>2026-05-05T12:30:37.013Z</time>
      </trkpt>
      <trkpt lat="51.580527" lon="-4.001115">
        <ele>5.377135</ele>
        <time>2026-05-05T12:30:40.614Z</time>
      </trkpt>
      <trkpt lat="51.580488" lon="-4.001099">
        <ele>5.352135</ele>
        <time>2026-05-05T12:30:41.187Z</time>
      </trkpt>
      <trkpt lat="51.580143" lon="-4.000976">
        <ele>5.132641</ele>
        <time>2026-05-05T12:30:46.267Z</time>
      </trkpt>
      <trkpt lat="51.579295" lon="-4.000520">
        <ele>4.889287</ele>
        <time>2026-05-05T12:30:57.811Z</time>
      </trkpt>
      <trkpt lat="51.578921" lon="-4.000237">
        <ele>4.817250</ele>
        <time>2026-05-05T12:31:03.414Z</time>
      </trkpt>
      <trkpt lat="51.578642" lon="-3.999869">
        <ele>4.754370</ele>
        <time>2026-05-05T12:31:08.565Z</time>
      </trkpt>
      <trkpt lat="51.578158" lon="-3.999344">
        <ele>5.066581</ele>
        <time>2026-05-05T12:31:17.695Z</time>
      </trkpt>
      <trkpt lat="51.577768" lon="-3.999175">
        <ele>5.645866</ele>
        <time>2026-05-05T12:31:26.559Z</time>
      </trkpt>
      <trkpt lat="51.577391" lon="-3.999125">
        <ele>6.188413</ele>
        <time>2026-05-05T12:31:34.908Z</time>
      </trkpt>
      <trkpt lat="51.577021" lon="-3.999094">
        <ele>6.719805</ele>
        <time>2026-05-05T12:31:43.390Z</time>
      </trkpt>
      <trkpt lat="51.576927" lon="-3.999089">
        <ele>6.854699</ele>
        <time>2026-05-05T12:31:45.704Z</time>
      </trkpt>
      <trkpt lat="51.576823" lon="-3.999082">
        <ele>7.003992</ele>
        <time>2026-05-05T12:31:48.053Z</time>
      </trkpt>
      <trkpt lat="51.576799" lon="-3.999080">
        <ele>7.038460</ele>
        <time>2026-05-05T12:31:48.648Z</time>
      </trkpt>
      <trkpt lat="51.576170" lon="-3.998974">
        <ele>7.650727</ele>
        <time>2026-05-05T12:32:01.702Z</time>
      </trkpt>
      <trkpt lat="51.576070" lon="-3.998940">
        <ele>7.732657</ele>
        <time>2026-05-05T12:32:03.469Z</time>
      </trkpt>
      <trkpt lat="51.575959" lon="-3.998905">
        <ele>7.823326</ele>
        <time>2026-05-05T12:32:05.375Z</time>
      </trkpt>
      <trkpt lat="51.575854" lon="-3.998891">
        <ele>7.907782</ele>
        <time>2026-05-05T12:32:07.131Z</time>
      </trkpt>
      <trkpt lat="51.575800" lon="-3.998831">
        <ele>7.960385</ele>
        <time>2026-05-05T12:32:08.109Z</time>
      </trkpt>
      <trkpt lat="51.575069" lon="-3.998356">
        <ele>8.592327</ele>
        <time>2026-05-05T12:32:21.151Z</time>
      </trkpt>
      <trkpt lat="51.575038" lon="-3.998335">
        <ele>8.619289</ele>
        <time>2026-05-05T12:32:21.753Z</time>
      </trkpt>
      <trkpt lat="51.574866" lon="-3.998225">
        <ele>8.766671</ele>
        <time>2026-05-05T12:32:24.846Z</time>
      </trkpt>
      <trkpt lat="51.574567" lon="-3.997960">
        <ele>9.034773</ele>
        <time>2026-05-05T12:32:30.480Z</time>
      </trkpt>
      <trkpt lat="51.574430" lon="-3.997736">
        <ele>9.188176</ele>
        <time>2026-05-05T12:32:33.925Z</time>
      </trkpt>
      <trkpt lat="51.574325" lon="-3.997526">
        <ele>9.319737</ele>
        <time>2026-05-05T12:32:37.007Z</time>
      </trkpt>
      <trkpt lat="51.573978" lon="-3.996848">
        <ele>9.748457</ele>
        <time>2026-05-05T12:32:47.142Z</time>
      </trkpt>
      <trkpt lat="51.573786" lon="-3.996543">
        <ele>9.960363</ele>
        <time>2026-05-05T12:32:51.871Z</time>
      </trkpt>
      <trkpt lat="51.573763" lon="-3.996506">
        <ele>9.985908</ele>
        <time>2026-05-05T12:32:52.436Z</time>
      </trkpt>
      <trkpt lat="51.573582" lon="-3.996195">
        <ele>10.189393</ele>
        <time>2026-05-05T12:32:57.181Z</time>
      </trkpt>
      <trkpt lat="51.573487" lon="-3.995989">
        <ele>10.305575</ele>
        <time>2026-05-05T12:33:00.305Z</time>
      </trkpt>
      <trkpt lat="51.573245" lon="-3.995549">
        <ele>10.571688</ele>
        <time>2026-05-05T12:33:07.882Z</time>
      </trkpt>
      <trkpt lat="51.573194" lon="-3.995447">
        <ele>10.630981</ele>
        <time>2026-05-05T12:33:09.488Z</time>
      </trkpt>
      <trkpt lat="51.573179" lon="-3.995416">
        <ele>10.648775</ele>
        <time>2026-05-05T12:33:09.979Z</time>
      </trkpt>
      <trkpt lat="51.572806" lon="-3.994046">
        <ele>11.326210</ele>
        <time>2026-05-05T12:33:26.878Z</time>
      </trkpt>
      <trkpt lat="51.572702" lon="-3.993558">
        <ele>11.450744</ele>
        <time>2026-05-05T12:33:31.709Z</time>
      </trkpt>
      <trkpt lat="51.572672" lon="-3.992603">
        <ele>11.481601</ele>
        <time>2026-05-05T12:33:39.157Z</time>
      </trkpt>
      <trkpt lat="51.572615" lon="-3.991929">
        <ele>11.503551</ele>
        <time>2026-05-05T12:33:44.459Z</time>
      </trkpt>
      <trkpt lat="51.572544" lon="-3.991455">
        <ele>11.519284</ele>
        <time>2026-05-05T12:33:49.961Z</time>
      </trkpt>
      <trkpt lat="51.572448" lon="-3.991069">
        <ele>11.532701</ele>
        <time>2026-05-05T12:33:54.881Z</time>
      </trkpt>
      <trkpt lat="51.572339" lon="-3.990878">
        <ele>11.638425</ele>
        <time>2026-05-05T12:33:57.508Z</time>
      </trkpt>
      <trkpt lat="51.572155" lon="-3.990554">
        <ele>11.912258</ele>
        <time>2026-05-05T12:34:02.601Z</time>
      </trkpt>
      <trkpt lat="51.571978" lon="-3.989867">
        <ele>12.376269</ele>
        <time>2026-05-05T12:34:13.265Z</time>
      </trkpt>
      <trkpt lat="51.571887" lon="-3.989368">
        <ele>12.700738</ele>
        <time>2026-05-05T12:34:19.974Z</time>
      </trkpt>
      <trkpt lat="51.571884" lon="-3.989350">
        <ele>12.712365</ele>
        <time>2026-05-05T12:34:20.185Z</time>
      </trkpt>
      <trkpt lat="51.571829" lon="-3.989073">
        <ele>12.893801</ele>
        <time>2026-05-05T12:34:23.221Z</time>
      </trkpt>
      <trkpt lat="51.571816" lon="-3.989009">
        <ele>12.935811</ele>
        <time>2026-05-05T12:34:23.878Z</time>
      </trkpt>
      <trkpt lat="51.571713" lon="-3.988491">
        <ele>13.275148</ele>
        <time>2026-05-05T12:34:28.357Z</time>
      </trkpt>
      <trkpt lat="51.571482" lon="-3.987326">
        <ele>14.882894</ele>
        <time>2026-05-05T12:34:41.852Z</time>
      </trkpt>
      <trkpt lat="51.571371" lon="-3.986932">
        <ele>15.480037</ele>
        <time>2026-05-05T12:34:48.145Z</time>
      </trkpt>
      <trkpt lat="51.571165" lon="-3.986414">
        <ele>16.328931</ele>
        <time>2026-05-05T12:34:58.601Z</time>
      </trkpt>
      <trkpt lat="51.570878" lon="-3.985783">
        <ele>17.451089</ele>
        <time>2026-05-05T12:35:13.253Z</time>
      </trkpt>
      <trkpt lat="51.570692" lon="-3.985286">
        <ele>18.726445</ele>
        <time>2026-05-05T12:35:25.557Z</time>
      </trkpt>
      <trkpt lat="51.570567" lon="-3.984735">
        <ele>20.015909</ele>
        <time>2026-05-05T12:35:36.829Z</time>
      </trkpt>
      <trkpt lat="51.570505" lon="-3.984430">
        <ele>20.721362</ele>
        <time>2026-05-05T12:35:42.301Z</time>
      </trkpt>
      <trkpt lat="51.570372" lon="-3.983408">
        <ele>23.016823</ele>
        <time>2026-05-05T12:36:00.493Z</time>
      </trkpt>
      <trkpt lat="51.570241" lon="-3.982655">
        <ele>23.890269</ele>
        <time>2026-05-05T12:36:12.750Z</time>
      </trkpt>
      <trkpt lat="51.570075" lon="-3.982067">
        <ele>24.153617</ele>
        <time>2026-05-05T12:36:23.667Z</time>
      </trkpt>
      <trkpt lat="51.569641" lon="-3.981039">
        <ele>24.660370</ele>
        <time>2026-05-05T12:36:37.531Z</time>
      </trkpt>
      <trkpt lat="51.569455" lon="-3.980682">
        <ele>24.850327</ele>
        <time>2026-05-05T12:36:40.614Z</time>
      </trkpt>
      <trkpt lat="51.569326" lon="-3.980386">
        <ele>24.086874</ele>
        <time>2026-05-05T12:36:42.856Z</time>
      </trkpt>
      <trkpt lat="51.569178" lon="-3.979639">
        <ele>21.980103</ele>
        <time>2026-05-05T12:36:47.535Z</time>
      </trkpt>
      <trkpt lat="51.569032" lon="-3.979221">
        <ele>20.691699</ele>
        <time>2026-05-05T12:36:50.283Z</time>
      </trkpt>
      <trkpt lat="51.568922" lon="-3.978996">
        <ele>19.922490</ele>
        <time>2026-05-05T12:36:51.928Z</time>
      </trkpt>
      <trkpt lat="51.568816" lon="-3.978864">
        <ele>19.343004</ele>
        <time>2026-05-05T12:36:53.168Z</time>
      </trkpt>
      <trkpt lat="51.568710" lon="-3.978815">
        <ele>18.866214</ele>
        <time>2026-05-05T12:36:54.189Z</time>
      </trkpt>
      <trkpt lat="51.568604" lon="-3.978831">
        <ele>18.405953</ele>
        <time>2026-05-05T12:36:55.174Z</time>
      </trkpt>
      <trkpt lat="51.568469" lon="-3.978910">
        <ele>17.784926</ele>
        <time>2026-05-05T12:36:56.538Z</time>
      </trkpt>
      <trkpt lat="51.568349" lon="-3.979053">
        <ele>17.139339</ele>
        <time>2026-05-05T12:36:57.971Z</time>
      </trkpt>
      <trkpt lat="51.568271" lon="-3.979211">
        <ele>16.937336</ele>
        <time>2026-05-05T12:36:59.200Z</time>
      </trkpt>
      <trkpt lat="51.568151" lon="-3.979604">
        <ele>16.553551</ele>
        <time>2026-05-05T12:37:01.957Z</time>
      </trkpt>
      <trkpt lat="51.568049" lon="-3.979850">
        <ele>16.294359</ele>
        <time>2026-05-05T12:37:03.906Z</time>
      </trkpt>
      <trkpt lat="51.567514" lon="-3.980850">
        <ele>15.137890</ele>
        <time>2026-05-05T12:37:14.454Z</time>
      </trkpt>
      <trkpt lat="51.566806" lon="-3.982162">
        <ele>13.533330</ele>
        <time>2026-05-05T12:37:33.084Z</time>
      </trkpt>
      <trkpt lat="51.566563" lon="-3.982602">
        <ele>12.973112</ele>
        <time>2026-05-05T12:37:37.029Z</time>
      </trkpt>
      <trkpt lat="51.566374" lon="-3.983051">
        <ele>12.456975</ele>
        <time>2026-05-05T12:37:40.333Z</time>
      </trkpt>
      <trkpt lat="51.566337" lon="-3.983357">
        <ele>12.160257</ele>
        <time>2026-05-05T12:37:42.184Z</time>
      </trkpt>
      <trkpt lat="51.566348" lon="-3.983762">
        <ele>11.915549</ele>
        <time>2026-05-05T12:37:44.707Z</time>
      </trkpt>
      <trkpt lat="51.566423" lon="-3.984111">
        <ele>12.898825</ele>
        <time>2026-05-05T12:37:47.188Z</time>
      </trkpt>
      <trkpt lat="51.566550" lon="-3.984458">
        <ele>13.971069</ele>
        <time>2026-05-05T12:37:50.659Z</time>
      </trkpt>
      <trkpt lat="51.566589" lon="-3.984613">
        <ele>14.416327</ele>
        <time>2026-05-05T12:37:52.751Z</time>
      </trkpt>
      <trkpt lat="51.566593" lon="-3.984769">
        <ele>14.832071</ele>
        <time>2026-05-05T12:37:54.790Z</time>
      </trkpt>
      <trkpt lat="51.566566" lon="-3.984901">
        <ele>15.202096</ele>
        <time>2026-05-05T12:37:57.004Z</time>
      </trkpt>
      <trkpt lat="51.566511" lon="-3.985013">
        <ele>15.582162</ele>
        <time>2026-05-05T12:37:59.307Z</time>
      </trkpt>
      <trkpt lat="51.566536" lon="-3.985068">
        <ele>15.763592</ele>
        <time>2026-05-05T12:38:00.742Z</time>
      </trkpt>
      <trkpt lat="51.567178" lon="-3.985593">
        <ele>18.848628</ele>
        <time>2026-05-05T12:38:33.095Z</time>
      </trkpt>
      <trkpt lat="51.567635" lon="-3.986174">
        <ele>23.532667</ele>
        <time>2026-05-05T12:39:10.853Z</time>
      </trkpt>
      <trkpt lat="51.567774" lon="-3.986763">
        <ele>27.219677</ele>
        <time>2026-05-05T12:39:34.760Z</time>
      </trkpt>
      <trkpt lat="51.567797" lon="-3.987160">
        <ele>29.553065</ele>
        <time>2026-05-05T12:39:47.897Z</time>
      </trkpt>
      <trkpt lat="51.567780" lon="-3.987509">
        <ele>31.601739</ele>
        <time>2026-05-05T12:39:58.784Z</time>
      </trkpt>
      <trkpt lat="51.567769" lon="-3.987651">
        <ele>32.439178</ele>
        <time>2026-05-05T12:40:03.107Z</time>
      </trkpt>
      <trkpt lat="51.567766" lon="-3.987728">
        <ele>32.890681</ele>
        <time>2026-05-05T12:40:05.425Z</time>
      </trkpt>
      <trkpt lat="51.567749" lon="-3.987982">
        <ele>34.385729</ele>
        <time>2026-05-05T12:40:12.999Z</time>
      </trkpt>
      <trkpt lat="51.567713" lon="-3.988603">
        <ele>37.431126</ele>
        <time>2026-05-05T12:40:29.733Z</time>
      </trkpt>
      <trkpt lat="51.567709" lon="-3.988866">
        <ele>38.383556</ele>
        <time>2026-05-05T12:40:36.224Z</time>
      </trkpt>
      <trkpt lat="51.567658" lon="-3.990334">
        <ele>43.706486</ele>
        <time>2026-05-05T12:41:10.074Z</time>
      </trkpt>
      <trkpt lat="51.567638" lon="-3.990918">
        <ele>45.823963</ele>
        <time>2026-05-05T12:41:22.835Z</time>
      </trkpt>
      <trkpt lat="51.567659" lon="-3.991102">
        <ele>46.501238</ele>
        <time>2026-05-05T12:41:27.041Z</time>
      </trkpt>
      <trkpt lat="51.567805" lon="-3.991735">
        <ele>48.183855</ele>
        <time>2026-05-05T12:41:42.005Z</time>
      </trkpt>
      <trkpt lat="51.567890" lon="-3.991990">
        <ele>48.836246</ele>
        <time>2026-05-05T12:41:48.504Z</time>
      </trkpt>
      <trkpt lat="51.568050" lon="-3.992310">
        <ele>49.762187</ele>
        <time>2026-05-05T12:41:57.528Z</time>
      </trkpt>
      <trkpt lat="51.568314" lon="-3.992668">
        <ele>51.014586</ele>
        <time>2026-05-05T12:42:08.255Z</time>
      </trkpt>
      <trkpt lat="51.568451" lon="-3.992753">
        <ele>51.547194</ele>
        <time>2026-05-05T12:42:12.142Z</time>
      </trkpt>
      <trkpt lat="51.568584" lon="-3.992766">
        <ele>52.030510</ele>
        <time>2026-05-05T12:42:15.487Z</time>
      </trkpt>
      <trkpt lat="51.569021" lon="-3.992722">
        <ele>53.479622</ele>
        <time>2026-05-05T12:42:25.185Z</time>
      </trkpt>
      <trkpt lat="51.569128" lon="-3.992742">
        <ele>53.547430</ele>
        <time>2026-05-05T12:42:27.167Z</time>
      </trkpt>
      <trkpt lat="51.569742" lon="-3.993154">
        <ele>53.966207</ele>
        <time>2026-05-05T12:42:36.331Z</time>
      </trkpt>
      <trkpt lat="51.570003" lon="-3.993312">
        <ele>54.141749</ele>
        <time>2026-05-05T12:42:39.853Z</time>
      </trkpt>
      <trkpt lat="51.570118" lon="-3.993388">
        <ele>54.220010</ele>
        <time>2026-05-05T12:42:41.583Z</time>
      </trkpt>
      <trkpt lat="51.570230" lon="-3.993453">
        <ele>54.294959</ele>
        <time>2026-05-05T12:42:43.303Z</time>
      </trkpt>
      <trkpt lat="51.570308" lon="-3.993546">
        <ele>54.356073</ele>
        <time>2026-05-05T12:42:44.952Z</time>
      </trkpt>
      <trkpt lat="51.570352" lon="-3.993657">
        <ele>54.407583</ele>
        <time>2026-05-05T12:42:46.501Z</time>
      </trkpt>
      <trkpt lat="51.570362" lon="-3.993851">
        <ele>54.483749</ele>
        <time>2026-05-05T12:42:48.853Z</time>
      </trkpt>
      <trkpt lat="51.570326" lon="-3.993998">
        <ele>54.545567</ele>
        <time>2026-05-05T12:42:50.997Z</time>
      </trkpt>
      <trkpt lat="51.570202" lon="-3.994205">
        <ele>54.754025</ele>
        <time>2026-05-05T12:42:55.099Z</time>
      </trkpt>
      <trkpt lat="51.570025" lon="-3.994429">
        <ele>55.076199</ele>
        <time>2026-05-05T12:43:00.854Z</time>
      </trkpt>
      <trkpt lat="51.569879" lon="-3.994579">
        <ele>55.324027</ele>
        <time>2026-05-05T12:43:05.598Z</time>
      </trkpt>
      <trkpt lat="51.569649" lon="-3.994842">
        <ele>55.727715</ele>
        <time>2026-05-05T12:43:13.358Z</time>
      </trkpt>
      <trkpt lat="51.569516" lon="-3.995171">
        <ele>56.076704</ele>
        <time>2026-05-05T12:43:19.880Z</time>
      </trkpt>
      <trkpt lat="51.569478" lon="-3.995388">
        <ele>56.277178</ele>
        <time>2026-05-05T12:43:23.616Z</time>
      </trkpt>
      <trkpt lat="51.569300" lon="-3.996088">
        <ele>56.949716</ele>
        <time>2026-05-05T12:43:33.168Z</time>
      </trkpt>
      <trkpt lat="51.568995" lon="-3.997209">
        <ele>56.472833</ele>
        <time>2026-05-05T12:43:41.120Z</time>
      </trkpt>
      <trkpt lat="51.568962" lon="-3.997328">
        <ele>56.383107</ele>
        <time>2026-05-05T12:43:41.929Z</time>
      </trkpt>
      <trkpt lat="51.568866" lon="-3.997682">
        <ele>56.117159</ele>
        <time>2026-05-05T12:43:44.434Z</time>
      </trkpt>
      <trkpt lat="51.568832" lon="-3.997912">
        <ele>55.954368</ele>
        <time>2026-05-05T12:43:45.997Z</time>
      </trkpt>
      <trkpt lat="51.568810" lon="-3.998234">
        <ele>55.731309</ele>
        <time>2026-05-05T12:43:48.176Z</time>
      </trkpt>
      <trkpt lat="51.568827" lon="-3.998675">
        <ele>55.427060</ele>
        <time>2026-05-05T12:43:51.557Z</time>
      </trkpt>
      <trkpt lat="51.568862" lon="-3.998851">
        <ele>55.299818</ele>
        <time>2026-05-05T12:43:53.398Z</time>
      </trkpt>
      <trkpt lat="51.568903" lon="-3.998932">
        <ele>55.227888</ele>
        <time>2026-05-05T12:43:54.445Z</time>
      </trkpt>
      <trkpt lat="51.568964" lon="-3.998980">
        <ele>55.190271</ele>
        <time>2026-05-05T12:43:55.817Z</time>
      </trkpt>
      <trkpt lat="51.569040" lon="-3.999002">
        <ele>55.407548</ele>
        <time>2026-05-05T12:43:57.343Z</time>
      </trkpt>
      <trkpt lat="51.569114" lon="-3.999085">
        <ele>55.661369</ele>
        <time>2026-05-05T12:43:59.580Z</time>
      </trkpt>
      <trkpt lat="51.569146" lon="-3.999216">
        <ele>55.907535</ele>
        <time>2026-05-05T12:44:01.856Z</time>
      </trkpt>
      <trkpt lat="51.569168" lon="-3.999304">
        <ele>56.073422</ele>
        <time>2026-05-05T12:44:03.584Z</time>
      </trkpt>
      <trkpt lat="51.569243" lon="-3.999638">
        <ele>56.694512</ele>
        <time>2026-05-05T12:44:10.426Z</time>
      </trkpt>
      <trkpt lat="51.569561" lon="-4.000962">
        <ele>59.176933</ele>
        <time>2026-05-05T12:44:39.203Z</time>
      </trkpt>
      <trkpt lat="51.569595" lon="-4.001216">
        <ele>59.631339</ele>
        <time>2026-05-05T12:44:43.355Z</time>
      </trkpt>
      <trkpt lat="51.569595" lon="-4.001470">
        <ele>60.075561</ele>
        <time>2026-05-05T12:44:47.479Z</time>
      </trkpt>
      <trkpt lat="51.569418" lon="-4.002957">
        <ele>59.261767</ele>
        <time>2026-05-05T12:45:02.588Z</time>
      </trkpt>
      <trkpt lat="51.569390" lon="-4.003203">
        <ele>59.093344</ele>
        <time>2026-05-05T12:45:04.311Z</time>
      </trkpt>
      <trkpt lat="51.569338" lon="-4.003570">
        <ele>58.839848</ele>
        <time>2026-05-05T12:45:06.764Z</time>
      </trkpt>
      <trkpt lat="51.569318" lon="-4.003952">
        <ele>58.581678</ele>
        <time>2026-05-05T12:45:09.122Z</time>
      </trkpt>
      <trkpt lat="51.569323" lon="-4.004031">
        <ele>58.528201</ele>
        <time>2026-05-05T12:45:09.603Z</time>
      </trkpt>
      <trkpt lat="51.569425" lon="-4.004543">
        <ele>58.040777</ele>
        <time>2026-05-05T12:45:12.897Z</time>
      </trkpt>
      <trkpt lat="51.569578" lon="-4.004952">
        <ele>57.350526</ele>
        <time>2026-05-05T12:45:15.837Z</time>
      </trkpt>
      <trkpt lat="51.569832" lon="-4.005434">
        <ele>56.436796</ele>
        <time>2026-05-05T12:45:19.839Z</time>
      </trkpt>
      <trkpt lat="51.570138" lon="-4.006017">
        <ele>55.333442</ele>
        <time>2026-05-05T12:45:24.854Z</time>
      </trkpt>
      <trkpt lat="51.570360" lon="-4.006438">
        <ele>54.535137</ele>
        <time>2026-05-05T12:45:28.633Z</time>
      </trkpt>
      <trkpt lat="51.570629" lon="-4.006949">
        <ele>54.425291</ele>
        <time>2026-05-05T12:45:34.248Z</time>
      </trkpt>
      <trkpt lat="51.570715" lon="-4.007260">
        <ele>54.739032</ele>
        <time>2026-05-05T12:45:38.074Z</time>
      </trkpt>
      <trkpt lat="51.571095" lon="-4.007797">
        <ele>55.489048</ele>
        <time>2026-05-05T12:45:49.003Z</time>
      </trkpt>
      <trkpt lat="51.571094" lon="-4.007962">
        <ele>55.641136</ele>
        <time>2026-05-05T12:45:51.311Z</time>
      </trkpt>
      <trkpt lat="51.570956" lon="-4.007996">
        <ele>55.848165</ele>
        <time>2026-05-05T12:45:54.450Z</time>
      </trkpt>
      <trkpt lat="51.570849" lon="-4.008224">
        <ele>56.111489</ele>
        <time>2026-05-05T12:45:58.561Z</time>
      </trkpt>
      <trkpt lat="51.570817" lon="-4.008482">
        <ele>56.353977</ele>
        <time>2026-05-05T12:46:02.464Z</time>
      </trkpt>
      <trkpt lat="51.570862" lon="-4.008780">
        <ele>56.636635</ele>
        <time>2026-05-05T12:46:07.237Z</time>
      </trkpt>
      <trkpt lat="51.570910" lon="-4.009145">
        <ele>57.315457</ele>
        <time>2026-05-05T12:46:13.462Z</time>
      </trkpt>
      <trkpt lat="51.570947" lon="-4.009421">
        <ele>57.968090</ele>
        <time>2026-05-05T12:46:18.494Z</time>
      </trkpt>
      <trkpt lat="51.571002" lon="-4.009859">
        <ele>59.000961</ele>
        <time>2026-05-05T12:46:26.771Z</time>
      </trkpt>
      <trkpt lat="51.571059" lon="-4.010029">
        <ele>59.447438</ele>
        <time>2026-05-05T12:46:30.486Z</time>
      </trkpt>
      <trkpt lat="51.571260" lon="-4.010456">
        <ele>60.685539</ele>
        <time>2026-05-05T12:46:40.544Z</time>
      </trkpt>
      <trkpt lat="51.571527" lon="-4.010843">
        <ele>62.021993</ele>
        <time>2026-05-05T12:46:51.073Z</time>
      </trkpt>
      <trkpt lat="51.572140" lon="-4.011730">
        <ele>64.947075</ele>
        <time>2026-05-05T12:47:18.246Z</time>
      </trkpt>
      <trkpt lat="51.572229" lon="-4.011968">
        <ele>65.533940</ele>
        <time>2026-05-05T12:47:23.702Z</time>
      </trkpt>
      <trkpt lat="51.572212" lon="-4.012724">
        <ele>67.132316</ele>
        <time>2026-05-05T12:47:37.471Z</time>
      </trkpt>
      <trkpt lat="51.572233" lon="-4.013091">
        <ele>67.911019</ele>
        <time>2026-05-05T12:47:43.699Z</time>
      </trkpt>
      <trkpt lat="51.572237" lon="-4.013133">
        <ele>68.000795</ele>
        <time>2026-05-05T12:47:44.394Z</time>
      </trkpt>
      <trkpt lat="51.572249" lon="-4.013272">
        <ele>68.297304</ele>
        <time>2026-05-05T12:47:46.697Z</time>
      </trkpt>
      <trkpt lat="51.572204" lon="-4.014361">
        <ele>70.224509</ele>
        <time>2026-05-05T12:48:02.945Z</time>
      </trkpt>
      <trkpt lat="51.572291" lon="-4.015042">
        <ele>71.159222</ele>
        <time>2026-05-05T12:48:11.738Z</time>
      </trkpt>
      <trkpt lat="51.572302" lon="-4.016045">
        <ele>72.507916</ele>
        <time>2026-05-05T12:48:25.846Z</time>
      </trkpt>
      <trkpt lat="51.572329" lon="-4.016100">
        <ele>72.602144</ele>
        <time>2026-05-05T12:48:26.957Z</time>
      </trkpt>
      <trkpt lat="51.572405" lon="-4.016131">
        <ele>72.771744</ele>
        <time>2026-05-05T12:48:28.928Z</time>
      </trkpt>
      <trkpt lat="51.572696" lon="-4.016137">
        <ele>73.401270</ele>
        <time>2026-05-05T12:48:36.443Z</time>
      </trkpt>
      <trkpt lat="51.572729" lon="-4.016213">
        <ele>73.507957</ele>
        <time>2026-05-05T12:48:37.939Z</time>
      </trkpt>
      <trkpt lat="51.572735" lon="-4.016324">
        <ele>73.621122</ele>
        <time>2026-05-05T12:48:39.757Z</time>
      </trkpt>
      <trkpt lat="51.572741" lon="-4.016954">
        <ele>74.261069</ele>
        <time>2026-05-05T12:48:50.010Z</time>
      </trkpt>
      <trkpt lat="51.572656" lon="-4.017479">
        <ele>74.812091</ele>
        <time>2026-05-05T12:48:58.638Z</time>
      </trkpt>
      <trkpt lat="51.572466" lon="-4.018197">
        <ele>75.604692</ele>
        <time>2026-05-05T12:49:09.271Z</time>
      </trkpt>
      <trkpt lat="51.572183" lon="-4.019018">
        <ele>76.178740</ele>
        <time>2026-05-05T12:49:18.894Z</time>
      </trkpt>
      <trkpt lat="51.571901" lon="-4.019703">
        <ele>75.110689</ele>
        <time>2026-05-05T12:49:25.031Z</time>
      </trkpt>
      <trkpt lat="51.571620" lon="-4.020384">
        <ele>74.048122</ele>
        <time>2026-05-05T12:49:30.333Z</time>
      </trkpt>
      <trkpt lat="51.571412" lon="-4.020933">
        <ele>73.212326</ele>
        <time>2026-05-05T12:49:34.234Z</time>
      </trkpt>
      <trkpt lat="51.571274" lon="-4.021354">
        <ele>72.622682</ele>
        <time>2026-05-05T12:49:37.222Z</time>
      </trkpt>
      <trkpt lat="51.571235" lon="-4.021559">
        <ele>72.566797</ele>
        <time>2026-05-05T12:49:38.606Z</time>
      </trkpt>
      <trkpt lat="51.571170" lon="-4.022025">
        <ele>72.442304</ele>
        <time>2026-05-05T12:49:41.754Z</time>
      </trkpt>
      <trkpt lat="51.571502" lon="-4.022242">
        <ele>72.292014</ele>
        <time>2026-05-05T12:49:45.815Z</time>
      </trkpt>
      <trkpt lat="51.571973" lon="-4.022550">
        <ele>72.078788</ele>
        <time>2026-05-05T12:49:52.792Z</time>
      </trkpt>
      <trkpt lat="51.573052" lon="-4.023428">
        <ele>73.912480</ele>
        <time>2026-05-05T12:50:23.828Z</time>
      </trkpt>
      <trkpt lat="51.573791" lon="-4.023950">
        <ele>76.180715</ele>
        <time>2026-05-05T12:50:46.260Z</time>
      </trkpt>
      <trkpt lat="51.573871" lon="-4.023907">
        <ele>76.417763</ele>
        <time>2026-05-05T12:50:48.385Z</time>
      </trkpt>
      <trkpt lat="51.573918" lon="-4.023768">
        <ele>76.694160</ele>
        <time>2026-05-05T12:50:51.418Z</time>
      </trkpt>
      <trkpt lat="51.574047" lon="-4.023116">
        <ele>77.742266</ele>
        <time>2026-05-05T12:51:04.368Z</time>
      </trkpt>
      <trkpt lat="51.574164" lon="-4.023106">
        <ele>78.021043</ele>
        <time>2026-05-05T12:51:07.327Z</time>
      </trkpt>
      <trkpt lat="51.574492" lon="-4.023326">
        <ele>78.866566</ele>
        <time>2026-05-05T12:51:16.349Z</time>
      </trkpt>
      <trkpt lat="51.574650" lon="-4.023355">
        <ele>79.244943</ele>
        <time>2026-05-05T12:51:20.368Z</time>
      </trkpt>
      <trkpt lat="51.574794" lon="-4.023269">
        <ele>79.610410</ele>
        <time>2026-05-05T12:51:24.173Z</time>
      </trkpt>
      <trkpt lat="51.574901" lon="-4.023115">
        <ele>79.951990</ele>
        <time>2026-05-05T12:51:27.608Z</time>
      </trkpt>
      <trkpt lat="51.575011" lon="-4.022620">
        <ele>80.729355</ele>
        <time>2026-05-05T12:51:34.980Z</time>
      </trkpt>
      <trkpt lat="51.575167" lon="-4.021922">
        <ele>81.363405</ele>
        <time>2026-05-05T12:51:45.302Z</time>
      </trkpt>
      <trkpt lat="51.575440" lon="-4.020832">
        <ele>81.795571</ele>
        <time>2026-05-05T12:52:00.128Z</time>
      </trkpt>
      <trkpt lat="51.575478" lon="-4.020771">
        <ele>81.827333</ele>
        <time>2026-05-05T12:52:00.997Z</time>
      </trkpt>
      <trkpt lat="51.575558" lon="-4.020701">
        <ele>81.881216</ele>
        <time>2026-05-05T12:52:02.355Z</time>
      </trkpt>
      <trkpt lat="51.575876" lon="-4.020664">
        <ele>82.069873</ele>
        <time>2026-05-05T12:52:06.759Z</time>
      </trkpt>
      <trkpt lat="51.576208" lon="-4.020498">
        <ele>82.270866</ele>
        <time>2026-05-05T12:52:11.313Z</time>
      </trkpt>
      <trkpt lat="51.576394" lon="-4.021284">
        <ele>81.245098</ele>
        <time>2026-05-05T12:52:17.451Z</time>
      </trkpt>
      <trkpt lat="51.576603" lon="-4.022020">
        <ele>80.258192</ele>
        <time>2026-05-05T12:52:22.986Z</time>
      </trkpt>
      <trkpt lat="51.576631" lon="-4.022144">
        <ele>80.097287</ele>
        <time>2026-05-05T12:52:23.866Z</time>
      </trkpt>
      <trkpt lat="51.576623" lon="-4.022608">
        <ele>79.531168</ele>
        <time>2026-05-05T12:52:26.968Z</time>
      </trkpt>
      <trkpt lat="51.576951" lon="-4.024319">
        <ele>75.946221</ele>
        <time>2026-05-05T12:52:38.426Z</time>
      </trkpt>
      <trkpt lat="51.576998" lon="-4.024564">
        <ele>75.319926</ele>
        <time>2026-05-05T12:52:39.988Z</time>
      </trkpt>
      <trkpt lat="51.577543" lon="-4.025815">
        <ele>71.591966</ele>
        <time>2026-05-05T12:52:49.056Z</time>
      </trkpt>
      <trkpt lat="51.577760" lon="-4.026658">
        <ele>69.458213</ele>
        <time>2026-05-05T12:52:54.353Z</time>
      </trkpt>
      <trkpt lat="51.578006" lon="-4.027319">
        <ele>67.656512</ele>
        <time>2026-05-05T12:52:58.889Z</time>
      </trkpt>
      <trkpt lat="51.578089" lon="-4.028115">
        <ele>65.769085</ele>
        <time>2026-05-05T12:53:03.947Z</time>
      </trkpt>
      <trkpt lat="51.578265" lon="-4.028539">
        <ele>65.028367</ele>
        <time>2026-05-05T12:53:07.492Z</time>
      </trkpt>
      <trkpt lat="51.578533" lon="-4.029229">
        <ele>65.725726</ele>
        <time>2026-05-05T12:53:14.776Z</time>
      </trkpt>
      <trkpt lat="51.578612" lon="-4.029877">
        <ele>66.291671</ele>
        <time>2026-05-05T12:53:23.754Z</time>
      </trkpt>
      <trkpt lat="51.578649" lon="-4.030404">
        <ele>66.746202</ele>
        <time>2026-05-05T12:53:32.603Z</time>
      </trkpt>
      <trkpt lat="51.578753" lon="-4.030897">
        <ele>67.192400</ele>
        <time>2026-05-05T12:53:41.816Z</time>
      </trkpt>
      <trkpt lat="51.578922" lon="-4.031346">
        <ele>67.868876</ele>
        <time>2026-05-05T12:53:51.391Z</time>
      </trkpt>
      <trkpt lat="51.580020" lon="-4.032990">
        <ele>71.778635</ele>
        <time>2026-05-05T12:54:30.828Z</time>
      </trkpt>
      <trkpt lat="51.580053" lon="-4.033124">
        <ele>72.012137</ele>
        <time>2026-05-05T12:54:32.638Z</time>
      </trkpt>
      <trkpt lat="51.579944" lon="-4.033569">
        <ele>72.079238</ele>
        <time>2026-05-05T12:54:37.992Z</time>
      </trkpt>
      <trkpt lat="51.579917" lon="-4.033823">
        <ele>72.080762</ele>
        <time>2026-05-05T12:54:40.553Z</time>
      </trkpt>
      <trkpt lat="51.579955" lon="-4.034107">
        <ele>72.082481</ele>
        <time>2026-05-05T12:54:43.188Z</time>
      </trkpt>
      <trkpt lat="51.580105" lon="-4.034778">
        <ele>72.086699</ele>
        <time>2026-05-05T12:54:48.856Z</time>
      </trkpt>
      <trkpt lat="51.580221" lon="-4.035132">
        <ele>72.089067</ele>
        <time>2026-05-05T12:54:51.846Z</time>
      </trkpt>
      <trkpt lat="51.580334" lon="-4.035332">
        <ele>72.090666</ele>
        <time>2026-05-05T12:54:53.971Z</time>
      </trkpt>
      <trkpt lat="51.580637" lon="-4.035749">
        <ele>72.124867</ele>
        <time>2026-05-05T12:54:59.357Z</time>
      </trkpt>
      <trkpt lat="51.580766" lon="-4.036034">
        <ele>72.218202</ele>
        <time>2026-05-05T12:55:02.517Z</time>
      </trkpt>
      <trkpt lat="51.580875" lon="-4.036176">
        <ele>72.277942</ele>
        <time>2026-05-05T12:55:04.641Z</time>
      </trkpt>
      <trkpt lat="51.581240" lon="-4.036516">
        <ele>72.457597</ele>
        <time>2026-05-05T12:55:11.758Z</time>
      </trkpt>
      <trkpt lat="51.581663" lon="-4.036979">
        <ele>72.675519</ele>
        <time>2026-05-05T12:55:21.160Z</time>
      </trkpt>
      <trkpt lat="51.581717" lon="-4.037375">
        <ele>72.782837</ele>
        <time>2026-05-05T12:55:25.803Z</time>
      </trkpt>
      <trkpt lat="51.581756" lon="-4.038112">
        <ele>72.930210</ele>
        <time>2026-05-05T12:55:33.849Z</time>
      </trkpt>
      <trkpt lat="51.581817" lon="-4.038521">
        <ele>72.996119</ele>
        <time>2026-05-05T12:55:38.154Z</time>
      </trkpt>
      <trkpt lat="51.581877" lon="-4.038743">
        <ele>73.034054</ele>
        <time>2026-05-05T12:55:40.516Z</time>
      </trkpt>
      <trkpt lat="51.581973" lon="-4.039093">
        <ele>73.094003</ele>
        <time>2026-05-05T12:55:44.039Z</time>
      </trkpt>
      <trkpt lat="51.582085" lon="-4.039495">
        <ele>73.163036</ele>
        <time>2026-05-05T12:55:47.879Z</time>
      </trkpt>
      <trkpt lat="51.582544" lon="-4.041084">
        <ele>73.972930</ele>
        <time>2026-05-05T12:56:04.304Z</time>
      </trkpt>
      <trkpt lat="51.582701" lon="-4.041760">
        <ele>74.573844</ele>
        <time>2026-05-05T12:56:13.146Z</time>
      </trkpt>
      <trkpt lat="51.582754" lon="-4.041929">
        <ele>74.731471</ele>
        <time>2026-05-05T12:56:15.637Z</time>
      </trkpt>
      <trkpt lat="51.583807" lon="-4.041461">
        <ele>76.603282</ele>
        <time>2026-05-05T12:56:41.803Z</time>
      </trkpt>
      <trkpt lat="51.585342" lon="-4.040820">
        <ele>80.518551</ele>
        <time>2026-05-05T12:57:21.548Z</time>
      </trkpt>
      <trkpt lat="51.585404" lon="-4.041582">
        <ele>81.547059</ele>
        <time>2026-05-05T12:57:33.400Z</time>
      </trkpt>
      <trkpt lat="51.585492" lon="-4.043830">
        <ele>84.198642</ele>
        <time>2026-05-05T12:58:05.885Z</time>
      </trkpt>
      <trkpt lat="51.585518" lon="-4.044176">
        <ele>84.303800</ele>
        <time>2026-05-05T12:58:10.028Z</time>
      </trkpt>
      <trkpt lat="51.585519" lon="-4.044310">
        <ele>84.344234</ele>
        <time>2026-05-05T12:58:11.576Z</time>
      </trkpt>
      <trkpt lat="51.585520" lon="-4.044371">
        <ele>84.362645</ele>
        <time>2026-05-05T12:58:12.303Z</time>
      </trkpt>
      <trkpt lat="51.585428" lon="-4.045234">
        <ele>84.626839</ele>
        <time>2026-05-05T12:58:21.943Z</time>
      </trkpt>
      <trkpt lat="51.585419" lon="-4.045435">
        <ele>84.687643</ele>
        <time>2026-05-05T12:58:23.990Z</time>
      </trkpt>
      <trkpt lat="51.585404" lon="-4.046012">
        <ele>84.861891</ele>
        <time>2026-05-05T12:58:29.037Z</time>
      </trkpt>
      <trkpt lat="51.585420" lon="-4.046403">
        <ele>84.870002</ele>
        <time>2026-05-05T12:58:32.101Z</time>
      </trkpt>
      <trkpt lat="51.585526" lon="-4.047135">
        <ele>83.273643</ele>
        <time>2026-05-05T12:58:37.587Z</time>
      </trkpt>
      <trkpt lat="51.585550" lon="-4.047277">
        <ele>82.961090</ele>
        <time>2026-05-05T12:58:38.617Z</time>
      </trkpt>
      <trkpt lat="51.585734" lon="-4.048150">
        <ele>81.003161</ele>
        <time>2026-05-05T12:58:44.545Z</time>
      </trkpt>
      <trkpt lat="51.585930" lon="-4.048856">
        <ele>79.360830</ele>
        <time>2026-05-05T12:58:49.092Z</time>
      </trkpt>
      <trkpt lat="51.586221" lon="-4.049443">
        <ele>75.846512</ele>
        <time>2026-05-05T12:58:53.287Z</time>
      </trkpt>
      <trkpt lat="51.586360" lon="-4.049983">
        <ele>72.340827</ele>
        <time>2026-05-05T12:58:56.467Z</time>
      </trkpt>
      <trkpt lat="51.586490" lon="-4.050895">
        <ele>66.728850</ele>
        <time>2026-05-05T12:59:01.436Z</time>
      </trkpt>
      <trkpt lat="51.586682" lon="-4.051925">
        <ele>60.358484</ele>
        <time>2026-05-05T12:59:07.093Z</time>
      </trkpt>
      <trkpt lat="51.586762" lon="-4.052162">
        <ele>58.849743</ele>
        <time>2026-05-05T12:59:08.513Z</time>
      </trkpt>
      <trkpt lat="51.586875" lon="-4.052399">
        <ele>57.178660</ele>
        <time>2026-05-05T12:59:10.081Z</time>
      </trkpt>
      <trkpt lat="51.586983" lon="-4.052586">
        <ele>55.750517</ele>
        <time>2026-05-05T12:59:11.421Z</time>
      </trkpt>
      <trkpt lat="51.587173" lon="-4.053032">
        <ele>52.725602</ele>
        <time>2026-05-05T12:59:14.291Z</time>
      </trkpt>
      <trkpt lat="51.587280" lon="-4.053407">
        <ele>50.417331</ele>
        <time>2026-05-05T12:59:16.511Z</time>
      </trkpt>
      <trkpt lat="51.587308" lon="-4.053648">
        <ele>49.045877</ele>
        <time>2026-05-05T12:59:17.864Z</time>
      </trkpt>
      <trkpt lat="51.587282" lon="-4.054182">
        <ele>46.049670</ele>
        <time>2026-05-05T12:59:20.936Z</time>
      </trkpt>
      <trkpt lat="51.587079" lon="-4.054784">
        <ele>45.435682</ele>
        <time>2026-05-05T12:59:25.139Z</time>
      </trkpt>
      <trkpt lat="51.586960" lon="-4.054977">
        <ele>45.521927</ele>
        <time>2026-05-05T12:59:27.041Z</time>
      </trkpt>
      <trkpt lat="51.586603" lon="-4.055258">
        <ele>45.724804</ele>
        <time>2026-05-05T12:59:32.920Z</time>
      </trkpt>
      <trkpt lat="51.586525" lon="-4.055285">
        <ele>45.765534</ele>
        <time>2026-05-05T12:59:34.485Z</time>
      </trkpt>
      <trkpt lat="51.585726" lon="-4.055676">
        <ele>46.328757</ele>
        <time>2026-05-05T12:59:57.486Z</time>
      </trkpt>
      <trkpt lat="51.585400" lon="-4.056027">
        <ele>49.110067</ele>
        <time>2026-05-05T13:00:11.598Z</time>
      </trkpt>
      <trkpt lat="51.585182" lon="-4.056379">
        <ele>51.299834</ele>
        <time>2026-05-05T13:00:24.528Z</time>
      </trkpt>
      <trkpt lat="51.584926" lon="-4.057040">
        <ele>54.731682</ele>
        <time>2026-05-05T13:00:47.447Z</time>
      </trkpt>
      <trkpt lat="51.584729" lon="-4.058263">
        <ele>59.920877</ele>
        <time>2026-05-05T13:01:27.545Z</time>
      </trkpt>
      <trkpt lat="51.584692" lon="-4.058468">
        <ele>60.600863</ele>
        <time>2026-05-05T13:01:33.957Z</time>
      </trkpt>
      <trkpt lat="51.584595" lon="-4.058927">
        <ele>62.145186</ele>
        <time>2026-05-05T13:01:47.637Z</time>
      </trkpt>
      <trkpt lat="51.584467" lon="-4.059283">
        <ele>63.455339</ele>
        <time>2026-05-05T13:01:57.917Z</time>
      </trkpt>
      <trkpt lat="51.584256" lon="-4.059690">
        <ele>65.143768</ele>
        <time>2026-05-05T13:02:08.991Z</time>
      </trkpt>
      <trkpt lat="51.583926" lon="-4.060403">
        <ele>67.975761</ele>
        <time>2026-05-05T13:02:22.289Z</time>
      </trkpt>
      <trkpt lat="51.583740" lon="-4.060862">
        <ele>68.196397</ele>
        <time>2026-05-05T13:02:27.901Z</time>
      </trkpt>
      <trkpt lat="51.583406" lon="-4.061501">
        <ele>68.264636</ele>
        <time>2026-05-05T13:02:34.788Z</time>
      </trkpt>
      <trkpt lat="51.583009" lon="-4.062125">
        <ele>68.337620</ele>
        <time>2026-05-05T13:02:41.918Z</time>
      </trkpt>
      <trkpt lat="51.582540" lon="-4.062708">
        <ele>68.579912</ele>
        <time>2026-05-05T13:02:50.280Z</time>
      </trkpt>
      <trkpt lat="51.581123" lon="-4.064497">
        <ele>70.523142</ele>
        <time>2026-05-05T13:03:26.897Z</time>
      </trkpt>
      <trkpt lat="51.580972" lon="-4.064787">
        <ele>70.771879</ele>
        <time>2026-05-05T13:03:31.860Z</time>
      </trkpt>
      <trkpt lat="51.580541" lon="-4.065888">
        <ele>71.627365</ele>
        <time>2026-05-05T13:03:47.853Z</time>
      </trkpt>
      <trkpt lat="51.580011" lon="-4.067350">
        <ele>72.331084</ele>
        <time>2026-05-05T13:04:06.342Z</time>
      </trkpt>
      <trkpt lat="51.579611" lon="-4.068941">
        <ele>72.535777</ele>
        <time>2026-05-05T13:04:22.544Z</time>
      </trkpt>
      <trkpt lat="51.579245" lon="-4.070567">
        <ele>72.680518</ele>
        <time>2026-05-05T13:04:37.225Z</time>
      </trkpt>
      <trkpt lat="51.579120" lon="-4.070969">
        <ele>72.713044</ele>
        <time>2026-05-05T13:04:41.307Z</time>
      </trkpt>
      <trkpt lat="51.579244" lon="-4.071086">
        <ele>72.729781</ele>
        <time>2026-05-05T13:04:43.551Z</time>
      </trkpt>
      <trkpt lat="51.581008" lon="-4.071661">
        <ele>73.270480</ele>
        <time>2026-05-05T13:05:15.162Z</time>
      </trkpt>
      <trkpt lat="51.581295" lon="-4.071626">
        <ele>73.380906</ele>
        <time>2026-05-05T13:05:19.872Z</time>
      </trkpt>
      <trkpt lat="51.581815" lon="-4.071327">
        <ele>73.101275</ele>
        <time>2026-05-05T13:05:27.688Z</time>
      </trkpt>
      <trkpt lat="51.582195" lon="-4.071109">
        <ele>72.549322</ele>
        <time>2026-05-05T13:05:32.506Z</time>
      </trkpt>
      <trkpt lat="51.582548" lon="-4.070906">
        <ele>72.036448</ele>
        <time>2026-05-05T13:05:36.726Z</time>
      </trkpt>
      <trkpt lat="51.583222" lon="-4.070852">
        <ele>71.113158</ele>
        <time>2026-05-05T13:05:44.140Z</time>
      </trkpt>
      <trkpt lat="51.583675" lon="-4.070970">
        <ele>70.403926</ele>
        <time>2026-05-05T13:05:49.061Z</time>
      </trkpt>
      <trkpt lat="51.585675" lon="-4.071356">
        <ele>68.237496</ele>
        <time>2026-05-05T13:06:12.577Z</time>
      </trkpt>
      <trkpt lat="51.585819" lon="-4.071430">
        <ele>68.248821</ele>
        <time>2026-05-05T13:06:14.881Z</time>
      </trkpt>
      <trkpt lat="51.585928" lon="-4.071485">
        <ele>68.257379</ele>
        <time>2026-05-05T13:06:16.739Z</time>
      </trkpt>
      <trkpt lat="51.586214" lon="-4.071754">
        <ele>68.282197</ele>
        <time>2026-05-05T13:06:22.424Z</time>
      </trkpt>
      <trkpt lat="51.586821" lon="-4.072482">
        <ele>68.534887</ele>
        <time>2026-05-05T13:06:37.021Z</time>
      </trkpt>
      <trkpt lat="51.587194" lon="-4.072271">
        <ele>69.035171</ele>
        <time>2026-05-05T13:06:45.364Z</time>
      </trkpt>
      <trkpt lat="51.588299" lon="-4.071647">
        <ele>70.516962</ele>
        <time>2026-05-05T13:07:08.397Z</time>
      </trkpt>
      <trkpt lat="51.589010" lon="-4.071124">
        <ele>71.204260</ele>
        <time>2026-05-05T13:07:24.056Z</time>
      </trkpt>
      <trkpt lat="51.589154" lon="-4.071030">
        <ele>71.335199</ele>
        <time>2026-05-05T13:07:27.004Z</time>
      </trkpt>
      <trkpt lat="51.589545" lon="-4.070774">
        <ele>71.690885</ele>
        <time>2026-05-05T13:07:34.723Z</time>
      </trkpt>
      <trkpt lat="51.590206" lon="-4.070312">
        <ele>72.049286</ele>
        <time>2026-05-05T13:07:46.558Z</time>
      </trkpt>
      <trkpt lat="51.590674" lon="-4.069871">
        <ele>71.874553</ele>
        <time>2026-05-05T13:07:54.060Z</time>
      </trkpt>
      <trkpt lat="51.590995" lon="-4.069502">
        <ele>71.747456</ele>
        <time>2026-05-05T13:07:59.345Z</time>
      </trkpt>
      <trkpt lat="51.591577" lon="-4.068868">
        <ele>71.447134</ele>
        <time>2026-05-05T13:08:08.756Z</time>
      </trkpt>
      <trkpt lat="51.592291" lon="-4.068265">
        <ele>70.093950</ele>
        <time>2026-05-05T13:08:18.276Z</time>
      </trkpt>
      <trkpt lat="51.592567" lon="-4.068040">
        <ele>69.574738</ele>
        <time>2026-05-05T13:08:21.710Z</time>
      </trkpt>
      <trkpt lat="51.593327" lon="-4.067433">
        <ele>68.310551</ele>
        <time>2026-05-05T13:08:30.601Z</time>
      </trkpt>
      <trkpt lat="51.594507" lon="-4.066426">
        <ele>67.038596</ele>
        <time>2026-05-05T13:08:45.818Z</time>
      </trkpt>
      <trkpt lat="51.597935" lon="-4.063401">
        <ele>75.178556</ele>
        <time>2026-05-05T13:10:23.508Z</time>
      </trkpt>
      <trkpt lat="51.598616" lon="-4.062850">
        <ele>75.605427</ele>
        <time>2026-05-05T13:10:37.932Z</time>
      </trkpt>
      <trkpt lat="51.599292" lon="-4.062400">
        <ele>76.015126</ele>
        <time>2026-05-05T13:10:48.890Z</time>
      </trkpt>
      <trkpt lat="51.599978" lon="-4.062010">
        <ele>75.486193</ele>
        <time>2026-05-05T13:10:58.269Z</time>
      </trkpt>
      <trkpt lat="51.601293" lon="-4.061390">
        <ele>73.702810</ele>
        <time>2026-05-05T13:11:13.733Z</time>
      </trkpt>
      <trkpt lat="51.601611" lon="-4.061284">
        <ele>73.576438</ele>
        <time>2026-05-05T13:11:17.293Z</time>
      </trkpt>
      <trkpt lat="51.601951" lon="-4.061227">
        <ele>73.443414</ele>
        <time>2026-05-05T13:11:21.253Z</time>
      </trkpt>
      <trkpt lat="51.602544" lon="-4.061181">
        <ele>73.212384</ele>
        <time>2026-05-05T13:11:29.274Z</time>
      </trkpt>
      <trkpt lat="51.603125" lon="-4.061119">
        <ele>73.215048</ele>
        <time>2026-05-05T13:11:40.583Z</time>
      </trkpt>
      <trkpt lat="51.603852" lon="-4.060964">
        <ele>74.502481</ele>
        <time>2026-05-05T13:11:57.819Z</time>
      </trkpt>
      <trkpt lat="51.605792" lon="-4.060245">
        <ele>77.753091</ele>
        <time>2026-05-05T13:12:41.439Z</time>
      </trkpt>
      <trkpt lat="51.606643" lon="-4.059855">
        <ele>79.101853</ele>
        <time>2026-05-05T13:12:58.607Z</time>
      </trkpt>
      <trkpt lat="51.607291" lon="-4.059465">
        <ele>80.180555</ele>
        <time>2026-05-05T13:13:12.662Z</time>
      </trkpt>
      <trkpt lat="51.608998" lon="-4.058375">
        <ele>82.829278</ele>
        <time>2026-05-05T13:13:52.853Z</time>
      </trkpt>
      <trkpt lat="51.610118" lon="-4.057503">
        <ele>84.608674</ele>
        <time>2026-05-05T13:14:15.386Z</time>
      </trkpt>
      <trkpt lat="51.610473" lon="-4.057286">
        <ele>85.304597</ele>
        <time>2026-05-05T13:14:22.769Z</time>
      </trkpt>
      <trkpt lat="51.611044" lon="-4.056955">
        <ele>86.416834</ele>
        <time>2026-05-05T13:14:36.450Z</time>
      </trkpt>
      <trkpt lat="51.611267" lon="-4.056775">
        <ele>86.874005</ele>
        <time>2026-05-05T13:14:42.651Z</time>
      </trkpt>
      <trkpt lat="51.611541" lon="-4.056486">
        <ele>87.530392</ele>
        <time>2026-05-05T13:14:51.328Z</time>
      </trkpt>
      <trkpt lat="51.611711" lon="-4.056260">
        <ele>88.146534</ele>
        <time>2026-05-05T13:14:57.380Z</time>
      </trkpt>
      <trkpt lat="51.612318" lon="-4.055234">
        <ele>90.606091</ele>
        <time>2026-05-05T13:15:21.090Z</time>
      </trkpt>
      <trkpt lat="51.612440" lon="-4.054986">
        <ele>91.155224</ele>
        <time>2026-05-05T13:15:26.120Z</time>
      </trkpt>
      <trkpt lat="51.612527" lon="-4.054706">
        <ele>91.698639</ele>
        <time>2026-05-05T13:15:30.985Z</time>
      </trkpt>
      <trkpt lat="51.612562" lon="-4.054423">
        <ele>92.199465</ele>
        <time>2026-05-05T13:15:35.448Z</time>
      </trkpt>
      <trkpt lat="51.612591" lon="-4.053639">
        <ele>93.175018</ele>
        <time>2026-05-05T13:15:47.430Z</time>
      </trkpt>
      <trkpt lat="51.612684" lon="-4.053173">
        <ele>93.742636</ele>
        <time>2026-05-05T13:15:54.578Z</time>
      </trkpt>
      <trkpt lat="51.612832" lon="-4.052739">
        <ele>94.316819</ele>
        <time>2026-05-05T13:16:01.572Z</time>
      </trkpt>
      <trkpt lat="51.613139" lon="-4.052246">
        <ele>95.126467</ele>
        <time>2026-05-05T13:16:10.992Z</time>
      </trkpt>
      <trkpt lat="51.613939" lon="-4.051330">
        <ele>95.966507</ele>
        <time>2026-05-05T13:16:29.613Z</time>
      </trkpt>
      <trkpt lat="51.614319" lon="-4.050642">
        <ele>96.155041</ele>
        <time>2026-05-05T13:16:38.520Z</time>
      </trkpt>
      <trkpt lat="51.614489" lon="-4.050225">
        <ele>96.257180</ele>
        <time>2026-05-05T13:16:42.869Z</time>
      </trkpt>
      <trkpt lat="51.614568" lon="-4.050365">
        <ele>96.295913</ele>
        <time>2026-05-05T13:16:44.463Z</time>
      </trkpt>
      <trkpt lat="51.614592" lon="-4.050664">
        <ele>96.331862</ele>
        <time>2026-05-05T13:16:46.955Z</time>
      </trkpt>
      <trkpt lat="51.614683" lon="-4.051434">
        <ele>96.116089</ele>
        <time>2026-05-05T13:16:53.381Z</time>
      </trkpt>
      <trkpt lat="51.614815" lon="-4.052137">
        <ele>95.913912</ele>
        <time>2026-05-05T13:16:59.413Z</time>
      </trkpt>
      <trkpt lat="51.615708" lon="-4.055629">
        <ele>94.834228</ele>
        <time>2026-05-05T13:17:30.813Z</time>
      </trkpt>
      <trkpt lat="51.615831" lon="-4.056180">
        <ele>94.703424</ele>
        <time>2026-05-05T13:17:35.442Z</time>
      </trkpt>
      <trkpt lat="51.615886" lon="-4.056584">
        <ele>94.700194</ele>
        <time>2026-05-05T13:17:38.782Z</time>
      </trkpt>
      <trkpt lat="51.616006" lon="-4.057265">
        <ele>94.694666</ele>
        <time>2026-05-05T13:17:44.671Z</time>
      </trkpt>
      <trkpt lat="51.616162" lon="-4.058491">
        <ele>94.684893</ele>
        <time>2026-05-05T13:17:56.128Z</time>
      </trkpt>
      <trkpt lat="51.616252" lon="-4.059386">
        <ele>95.383457</ele>
        <time>2026-05-05T13:18:06.828Z</time>
      </trkpt>
      <trkpt lat="51.616316" lon="-4.060360">
        <ele>96.695566</ele>
        <time>2026-05-05T13:18:20.378Z</time>
      </trkpt>
      <trkpt lat="51.616304" lon="-4.060873">
        <ele>97.383295</ele>
        <time>2026-05-05T13:18:28.277Z</time>
      </trkpt>
      <trkpt lat="51.616218" lon="-4.061646">
        <ele>98.435340</ele>
        <time>2026-05-05T13:18:41.387Z</time>
      </trkpt>
      <trkpt lat="51.616108" lon="-4.062124">
        <ele>99.390324</ele>
        <time>2026-05-05T13:18:50.454Z</time>
      </trkpt>
      <trkpt lat="51.615957" lon="-4.062622">
        <ele>100.496223</ele>
        <time>2026-05-05T13:19:00.628Z</time>
      </trkpt>
      <trkpt lat="51.616328" lon="-4.064045">
        <ele>103.575924</ele>
        <time>2026-05-05T13:19:28.141Z</time>
      </trkpt>
      <trkpt lat="51.616803" lon="-4.065618">
        <ele>105.649623</ele>
        <time>2026-05-05T13:19:54.609Z</time>
      </trkpt>
      <trkpt lat="51.617098" lon="-4.066329">
        <ele>106.468400</ele>
        <time>2026-05-05T13:20:04.664Z</time>
      </trkpt>
      <trkpt lat="51.617368" lon="-4.066802">
        <ele>107.083593</ele>
        <time>2026-05-05T13:20:11.564Z</time>
      </trkpt>
      <trkpt lat="51.617567" lon="-4.067036">
        <ele>107.012121</ele>
        <time>2026-05-05T13:20:15.460Z</time>
      </trkpt>
      <trkpt lat="51.617976" lon="-4.067352">
        <ele>106.802005</ele>
        <time>2026-05-05T13:20:21.910Z</time>
      </trkpt>
      <trkpt lat="51.618224" lon="-4.067487">
        <ele>106.680750</ele>
        <time>2026-05-05T13:20:25.339Z</time>
      </trkpt>
      <trkpt lat="51.618564" lon="-4.067614">
        <ele>106.519085</ele>
        <time>2026-05-05T13:20:29.752Z</time>
      </trkpt>
      <trkpt lat="51.619609" lon="-4.067793">
        <ele>105.506903</ele>
        <time>2026-05-05T13:20:42.458Z</time>
      </trkpt>
      <trkpt lat="51.619818" lon="-4.067807">
        <ele>105.207159</ele>
        <time>2026-05-05T13:20:44.855Z</time>
      </trkpt>
      <trkpt lat="51.620378" lon="-4.067733">
        <ele>104.402016</ele>
        <time>2026-05-05T13:20:51.294Z</time>
      </trkpt>
      <trkpt lat="51.621787" lon="-4.067669">
        <ele>102.407674</ele>
        <time>2026-05-05T13:21:07.238Z</time>
      </trkpt>
      <trkpt lat="51.622416" lon="-4.067698">
        <ele>101.523337</ele>
        <time>2026-05-05T13:21:14.278Z</time>
      </trkpt>
      <trkpt lat="51.623251" lon="-4.067858">
        <ele>101.746751</ele>
        <time>2026-05-05T13:21:25.994Z</time>
      </trkpt>
      <trkpt lat="51.623870" lon="-4.068105">
        <ele>102.355839</ele>
        <time>2026-05-05T13:21:38.621Z</time>
      </trkpt>
      <trkpt lat="51.624956" lon="-4.068646">
        <ele>103.604325</ele>
        <time>2026-05-05T13:22:05.808Z</time>
      </trkpt>
      <trkpt lat="51.625033" lon="-4.068685">
        <ele>103.704423</ele>
        <time>2026-05-05T13:22:07.514Z</time>
      </trkpt>
      <trkpt lat="51.625532" lon="-4.068928">
        <ele>104.350896</ele>
        <time>2026-05-05T13:22:17.776Z</time>
      </trkpt>
      <trkpt lat="51.625759" lon="-4.069051">
        <ele>104.647900</ele>
        <time>2026-05-05T13:22:22.159Z</time>
      </trkpt>
      <trkpt lat="51.626143" lon="-4.069311">
        <ele>105.101821</ele>
        <time>2026-05-05T13:22:29.156Z</time>
      </trkpt>
      <trkpt lat="51.626512" lon="-4.069586">
        <ele>104.771736</ele>
        <time>2026-05-05T13:22:34.631Z</time>
      </trkpt>
      <trkpt lat="51.626855" lon="-4.069849">
        <ele>104.463330</ele>
        <time>2026-05-05T13:22:39.310Z</time>
      </trkpt>
      <trkpt lat="51.626938" lon="-4.069921">
        <ele>104.386796</ele>
        <time>2026-05-05T13:22:40.458Z</time>
      </trkpt>
      <trkpt lat="51.627161" lon="-4.070545">
        <ele>104.023918</ele>
        <time>2026-05-05T13:22:48.119Z</time>
      </trkpt>
      <trkpt lat="51.627603" lon="-4.071726">
        <ele>102.612681</ele>
        <time>2026-05-05T13:23:02.662Z</time>
      </trkpt>
      <trkpt lat="51.627844" lon="-4.073231">
        <ele>100.166745</ele>
        <time>2026-05-05T13:23:17.632Z</time>
      </trkpt>
      <trkpt lat="51.627803" lon="-4.073497">
        <ele>99.735433</ele>
        <time>2026-05-05T13:23:20.078Z</time>
      </trkpt>
      <trkpt lat="51.627784" lon="-4.073623">
        <ele>99.531382</ele>
        <time>2026-05-05T13:23:21.213Z</time>
      </trkpt>
      <trkpt lat="51.627633" lon="-4.073876">
        <ele>98.868584</ele>
        <time>2026-05-05T13:23:24.251Z</time>
      </trkpt>
      <trkpt lat="51.626920" lon="-4.074570">
        <ele>94.928149</ele>
        <time>2026-05-05T13:23:35.407Z</time>
      </trkpt>
      <trkpt lat="51.626624" lon="-4.075138">
        <ele>92.750515</ele>
        <time>2026-05-05T13:23:41.558Z</time>
      </trkpt>
      <trkpt lat="51.626332" lon="-4.075232">
        <ele>91.342007</ele>
        <time>2026-05-05T13:23:45.607Z</time>
      </trkpt>
      <trkpt lat="51.626176" lon="-4.075328">
        <ele>90.580046</ele>
        <time>2026-05-05T13:23:47.923Z</time>
      </trkpt>
      <trkpt lat="51.626055" lon="-4.075401">
        <ele>90.334217</ele>
        <time>2026-05-05T13:23:49.725Z</time>
      </trkpt>
      <trkpt lat="51.625875" lon="-4.075636">
        <ele>89.893397</ele>
        <time>2026-05-05T13:23:53.014Z</time>
      </trkpt>
      <trkpt lat="51.625677" lon="-4.075893">
        <ele>89.409607</ele>
        <time>2026-05-05T13:23:56.714Z</time>
      </trkpt>
      <trkpt lat="51.625006" lon="-4.076703">
        <ele>87.814271</ele>
        <time>2026-05-05T13:24:10.537Z</time>
      </trkpt>
      <trkpt lat="51.624821" lon="-4.076764">
        <ele>87.454995</ele>
        <time>2026-05-05T13:24:14.235Z</time>
      </trkpt>
      <trkpt lat="51.624443" lon="-4.076716">
        <ele>87.563028</ele>
        <time>2026-05-05T13:24:22.481Z</time>
      </trkpt>
      <trkpt lat="51.624368" lon="-4.076737">
        <ele>87.689251</ele>
        <time>2026-05-05T13:24:24.277Z</time>
      </trkpt>
      <trkpt lat="51.624288" lon="-4.076839">
        <ele>87.858426</ele>
        <time>2026-05-05T13:24:26.759Z</time>
      </trkpt>
      <trkpt lat="51.623906" lon="-4.078178">
        <ele>89.375339</ele>
        <time>2026-05-05T13:24:52.740Z</time>
      </trkpt>
      <trkpt lat="51.623696" lon="-4.079682">
        <ele>91.381147</ele>
        <time>2026-05-05T13:25:21.352Z</time>
      </trkpt>
      <trkpt lat="51.623485" lon="-4.080570">
        <ele>92.870490</ele>
        <time>2026-05-05T13:25:39.276Z</time>
      </trkpt>
      <trkpt lat="51.623443" lon="-4.081446">
        <ele>94.246728</ele>
        <time>2026-05-05T13:25:55.921Z</time>
      </trkpt>
      <trkpt lat="51.623426" lon="-4.081987">
        <ele>95.228628</ele>
        <time>2026-05-05T13:26:06.187Z</time>
      </trkpt>
      <trkpt lat="51.623386" lon="-4.082164">
        <ele>95.622566</ele>
        <time>2026-05-05T13:26:09.836Z</time>
      </trkpt>
      <trkpt lat="51.622976" lon="-4.083208">
        <ele>98.206160</ele>
        <time>2026-05-05T13:26:34.293Z</time>
      </trkpt>
      <trkpt lat="51.622314" lon="-4.084725">
        <ele>102.824030</ele>
        <time>2026-05-05T13:27:15.931Z</time>
      </trkpt>
      <trkpt lat="51.621485" lon="-4.086658">
        <ele>110.389737</ele>
        <time>2026-05-05T13:28:19.152Z</time>
      </trkpt>
      <trkpt lat="51.621409" lon="-4.086916">
        <ele>111.039966</ele>
        <time>2026-05-05T13:28:26.840Z</time>
      </trkpt>
      <trkpt lat="51.621317" lon="-4.087550">
        <ele>112.522475</ele>
        <time>2026-05-05T13:28:43.368Z</time>
      </trkpt>
      <trkpt lat="51.621276" lon="-4.088000">
        <ele>113.558091</ele>
        <time>2026-05-05T13:28:54.050Z</time>
      </trkpt>
      <trkpt lat="51.621271" lon="-4.088451">
        <ele>114.585173</ele>
        <time>2026-05-05T13:29:03.894Z</time>
      </trkpt>
      <trkpt lat="51.621414" lon="-4.091058">
        <ele>117.086030</ele>
        <time>2026-05-05T13:29:45.902Z</time>
      </trkpt>
      <trkpt lat="51.621434" lon="-4.092510">
        <ele>117.041852</ele>
        <time>2026-05-05T13:30:01.625Z</time>
      </trkpt>
      <trkpt lat="51.621467" lon="-4.093324">
        <ele>115.969560</ele>
        <time>2026-05-05T13:30:09.442Z</time>
      </trkpt>
      <trkpt lat="51.621508" lon="-4.094330">
        <ele>114.644316</ele>
        <time>2026-05-05T13:30:18.822Z</time>
      </trkpt>
      <trkpt lat="51.621553" lon="-4.095515">
        <ele>113.294621</ele>
        <time>2026-05-05T13:30:30.094Z</time>
      </trkpt>
      <trkpt lat="51.621633" lon="-4.097814">
        <ele>111.789140</ele>
        <time>2026-05-05T13:30:55.197Z</time>
      </trkpt>
      <trkpt lat="51.621706" lon="-4.098117">
        <ele>111.601907</ele>
        <time>2026-05-05T13:30:59.194Z</time>
      </trkpt>
      <trkpt lat="51.621350" lon="-4.100763">
        <ele>111.205555</ele>
        <time>2026-05-05T13:31:32.419Z</time>
      </trkpt>
      <trkpt lat="51.621299" lon="-4.101072">
        <ele>111.163122</ele>
        <time>2026-05-05T13:31:36.079Z</time>
      </trkpt>
      <trkpt lat="51.621136" lon="-4.101961">
        <ele>111.049959</ele>
        <time>2026-05-05T13:31:46.736Z</time>
      </trkpt>
      <trkpt lat="51.621087" lon="-4.102450">
        <ele>110.989490</ele>
        <time>2026-05-05T13:31:52.530Z</time>
      </trkpt>
      <trkpt lat="51.621102" lon="-4.102969">
        <ele>110.926062</ele>
        <time>2026-05-05T13:31:58.669Z</time>
      </trkpt>
      <trkpt lat="51.621071" lon="-4.103745">
        <ele>110.832142</ele>
        <time>2026-05-05T13:32:08.443Z</time>
      </trkpt>
      <trkpt lat="51.620964" lon="-4.105287">
        <ele>111.318507</ele>
        <time>2026-05-05T13:32:30.189Z</time>
      </trkpt>
      <trkpt lat="51.620912" lon="-4.107024">
        <ele>111.977504</ele>
        <time>2026-05-05T13:32:54.719Z</time>
      </trkpt>
      <trkpt lat="51.620773" lon="-4.108267">
        <ele>112.736700</ele>
        <time>2026-05-05T13:33:12.648Z</time>
      </trkpt>
      <trkpt lat="51.620668" lon="-4.109504">
        <ele>113.483400</ele>
        <time>2026-05-05T13:33:32.357Z</time>
      </trkpt>
      <trkpt lat="51.620550" lon="-4.110171">
        <ele>113.648454</ele>
        <time>2026-05-05T13:33:44.015Z</time>
      </trkpt>
      <trkpt lat="51.620461" lon="-4.111244">
        <ele>113.906080</ele>
        <time>2026-05-05T13:34:00.782Z</time>
      </trkpt>
      <trkpt lat="51.620515" lon="-4.111425">
        <ele>113.953871</ele>
        <time>2026-05-05T13:34:03.560Z</time>
      </trkpt>
      <trkpt lat="51.621036" lon="-4.112320">
        <ele>113.660709</ele>
        <time>2026-05-05T13:34:17.015Z</time>
      </trkpt>
      <trkpt lat="51.621479" lon="-4.113424">
        <ele>111.548674</ele>
        <time>2026-05-05T13:34:28.855Z</time>
      </trkpt>
      <trkpt lat="51.621753" lon="-4.114208">
        <ele>110.103160</ele>
        <time>2026-05-05T13:34:37.006Z</time>
      </trkpt>
      <trkpt lat="51.621842" lon="-4.114524">
        <ele>109.545647</ele>
        <time>2026-05-05T13:34:40.230Z</time>
      </trkpt>
      <trkpt lat="51.621848" lon="-4.114684">
        <ele>109.457030</ele>
        <time>2026-05-05T13:34:41.740Z</time>
      </trkpt>
      <trkpt lat="51.621724" lon="-4.115206">
        <ele>109.225620</ele>
        <time>2026-05-05T13:34:47.127Z</time>
      </trkpt>
      <trkpt lat="51.621740" lon="-4.115402">
        <ele>109.143769</ele>
        <time>2026-05-05T13:34:49.116Z</time>
      </trkpt>
      <trkpt lat="51.621915" lon="-4.115691">
        <ele>108.976621</ele>
        <time>2026-05-05T13:34:53.465Z</time>
      </trkpt>
      <trkpt lat="51.621977" lon="-4.115936">
        <ele>108.867078</ele>
        <time>2026-05-05T13:34:56.612Z</time>
      </trkpt>
      <trkpt lat="51.621975" lon="-4.116140">
        <ele>108.782604</ele>
        <time>2026-05-05T13:34:59.216Z</time>
      </trkpt>
      <trkpt lat="51.621837" lon="-4.116957">
        <ele>108.432037</ele>
        <time>2026-05-05T13:35:11.044Z</time>
      </trkpt>
      <trkpt lat="51.621698" lon="-4.117434">
        <ele>108.301348</ele>
        <time>2026-05-05T13:35:18.928Z</time>
      </trkpt>
      <trkpt lat="51.621542" lon="-4.117756">
        <ele>108.276851</ele>
        <time>2026-05-05T13:35:24.927Z</time>
      </trkpt>
      <trkpt lat="51.621100" lon="-4.118254">
        <ele>108.224742</ele>
        <time>2026-05-05T13:35:37.123Z</time>
      </trkpt>
      <trkpt lat="51.620900" lon="-4.118568">
        <ele>108.197761</ele>
        <time>2026-05-05T13:35:42.781Z</time>
      </trkpt>
      <trkpt lat="51.620559" lon="-4.119590">
        <ele>108.010109</ele>
        <time>2026-05-05T13:35:55.028Z</time>
      </trkpt>
      <trkpt lat="51.620144" lon="-4.120560">
        <ele>107.353565</ele>
        <time>2026-05-05T13:36:06.628Z</time>
      </trkpt>
      <trkpt lat="51.620042" lon="-4.121118">
        <ele>107.029370</ele>
        <time>2026-05-05T13:36:12.688Z</time>
      </trkpt>
      <trkpt lat="51.619935" lon="-4.122529">
        <ele>106.568471</ele>
        <time>2026-05-05T13:36:30.997Z</time>
      </trkpt>
      <trkpt lat="51.619951" lon="-4.123271">
        <ele>106.626341</ele>
        <time>2026-05-05T13:36:43.162Z</time>
      </trkpt>
      <trkpt lat="51.619796" lon="-4.125058">
        <ele>106.425626</ele>
        <time>2026-05-05T13:37:07.492Z</time>
      </trkpt>
      <trkpt lat="51.619366" lon="-4.128652">
        <ele>98.659703</ele>
        <time>2026-05-05T13:37:39.809Z</time>
      </trkpt>
      <trkpt lat="51.619230" lon="-4.129884">
        <ele>95.243661</ele>
        <time>2026-05-05T13:37:50.371Z</time>
      </trkpt>
      <trkpt lat="51.619207" lon="-4.130334">
        <ele>94.011027</ele>
        <time>2026-05-05T13:37:54.133Z</time>
      </trkpt>
      <trkpt lat="51.619239" lon="-4.131152">
        <ele>92.210893</ele>
        <time>2026-05-05T13:38:01.141Z</time>
      </trkpt>
      <trkpt lat="51.619220" lon="-4.131397">
        <ele>91.729643</ele>
        <time>2026-05-05T13:38:03.291Z</time>
      </trkpt>
      <trkpt lat="51.619169" lon="-4.131836">
        <ele>90.859119</ele>
        <time>2026-05-05T13:38:07.232Z</time>
      </trkpt>
      <trkpt lat="51.619169" lon="-4.132107">
        <ele>90.330901</ele>
        <time>2026-05-05T13:38:09.675Z</time>
      </trkpt>
      <trkpt lat="51.619237" lon="-4.132269">
        <ele>89.949750</ele>
        <time>2026-05-05T13:38:11.469Z</time>
      </trkpt>
      <trkpt lat="51.619108" lon="-4.133452">
        <ele>87.631198</ele>
        <time>2026-05-05T13:38:22.992Z</time>
      </trkpt>
      <trkpt lat="51.618890" lon="-4.134417">
        <ele>86.577586</ele>
        <time>2026-05-05T13:38:33.722Z</time>
      </trkpt>
      <trkpt lat="51.618704" lon="-4.134747">
        <ele>86.120293</ele>
        <time>2026-05-05T13:38:38.332Z</time>
      </trkpt>
      <trkpt lat="51.618376" lon="-4.134971">
        <ele>85.531557</ele>
        <time>2026-05-05T13:38:44.253Z</time>
      </trkpt>
      <trkpt lat="51.617884" lon="-4.135966">
        <ele>84.254558</ele>
        <time>2026-05-05T13:38:56.837Z</time>
      </trkpt>
      <trkpt lat="51.617570" lon="-4.136736">
        <ele>83.367390</ele>
        <time>2026-05-05T13:39:05.749Z</time>
      </trkpt>
      <trkpt lat="51.617425" lon="-4.137169">
        <ele>82.893613</ele>
        <time>2026-05-05T13:39:10.633Z</time>
      </trkpt>
      <trkpt lat="51.617073" lon="-4.137913">
        <ele>81.992806</ele>
        <time>2026-05-05T13:39:20.314Z</time>
      </trkpt>
      <trkpt lat="51.617072" lon="-4.137915">
        <ele>81.990333</ele>
        <time>2026-05-05T13:39:20.347Z</time>
      </trkpt>
      <trkpt lat="51.616198" lon="-4.139352">
        <ele>82.445833</ele>
        <time>2026-05-05T13:39:45.446Z</time>
      </trkpt>
      <trkpt lat="51.612679" lon="-4.145068">
        <ele>90.481774</ele>
        <time>2026-05-05T13:42:01.938Z</time>
      </trkpt>
      <trkpt lat="51.612326" lon="-4.145537">
        <ele>91.286163</ele>
        <time>2026-05-05T13:42:14.624Z</time>
      </trkpt>
      <trkpt lat="51.611867" lon="-4.145993">
        <ele>92.234132</ele>
        <time>2026-05-05T13:42:29.326Z</time>
      </trkpt>
      <trkpt lat="51.611285" lon="-4.146419">
        <ele>93.072118</ele>
        <time>2026-05-05T13:42:46.253Z</time>
      </trkpt>
      <trkpt lat="51.611162" lon="-4.146509">
        <ele>93.248012</ele>
        <time>2026-05-05T13:42:49.693Z</time>
      </trkpt>
      <trkpt lat="51.610841" lon="-4.146761">
        <ele>93.712950</ele>
        <time>2026-05-05T13:42:58.817Z</time>
      </trkpt>
      <trkpt lat="51.610355" lon="-4.147061">
        <ele>94.390586</ele>
        <time>2026-05-05T13:43:12.024Z</time>
      </trkpt>
      <trkpt lat="51.609331" lon="-4.147674">
        <ele>94.239589</ele>
        <time>2026-05-05T13:43:36.750Z</time>
      </trkpt>
      <trkpt lat="51.608961" lon="-4.148006">
        <ele>94.077100</ele>
        <time>2026-05-05T13:43:44.352Z</time>
      </trkpt>
      <trkpt lat="51.608760" lon="-4.148285">
        <ele>93.975298</ele>
        <time>2026-05-05T13:43:48.700Z</time>
      </trkpt>
      <trkpt lat="51.608597" lon="-4.148743">
        <ele>93.724502</ele>
        <time>2026-05-05T13:43:53.782Z</time>
      </trkpt>
      <trkpt lat="51.608416" lon="-4.149429">
        <ele>93.165005</ele>
        <time>2026-05-05T13:44:00.698Z</time>
      </trkpt>
      <trkpt lat="51.608232" lon="-4.149747">
        <ele>92.838745</ele>
        <time>2026-05-05T13:44:04.868Z</time>
      </trkpt>
      <trkpt lat="51.607768" lon="-4.150336">
        <ele>92.124576</ele>
        <time>2026-05-05T13:44:15.136Z</time>
      </trkpt>
      <trkpt lat="51.607374" lon="-4.150814">
        <ele>91.929596</ele>
        <time>2026-05-05T13:44:25.945Z</time>
      </trkpt>
      <trkpt lat="51.607228" lon="-4.151050">
        <ele>92.168287</ele>
        <time>2026-05-05T13:44:31.012Z</time>
      </trkpt>
      <trkpt lat="51.607137" lon="-4.151312">
        <ele>92.383389</ele>
        <time>2026-05-05T13:44:35.828Z</time>
      </trkpt>
      <trkpt lat="51.607110" lon="-4.151569">
        <ele>92.570160</ele>
        <time>2026-05-05T13:44:40.220Z</time>
      </trkpt>
      <trkpt lat="51.607125" lon="-4.151883">
        <ele>92.795824</ele>
        <time>2026-05-05T13:44:45.773Z</time>
      </trkpt>
      <trkpt lat="51.607340" lon="-4.153159">
        <ele>93.743200</ele>
        <time>2026-05-05T13:45:07.616Z</time>
      </trkpt>
      <trkpt lat="51.607382" lon="-4.153747">
        <ele>93.600779</ele>
        <time>2026-05-05T13:45:16.043Z</time>
      </trkpt>
      <trkpt lat="51.607374" lon="-4.154167">
        <ele>93.426005</ele>
        <time>2026-05-05T13:45:21.543Z</time>
      </trkpt>
      <trkpt lat="51.607270" lon="-4.154778">
        <ele>93.162499</ele>
        <time>2026-05-05T13:45:29.089Z</time>
      </trkpt>
      <trkpt lat="51.607184" lon="-4.155088">
        <ele>93.021281</ele>
        <time>2026-05-05T13:45:32.791Z</time>
      </trkpt>
      <trkpt lat="51.607046" lon="-4.155426">
        <ele>92.853036</ele>
        <time>2026-05-05T13:45:36.966Z</time>
      </trkpt>
      <trkpt lat="51.606952" lon="-4.155804">
        <ele>92.683677</ele>
        <time>2026-05-05T13:45:40.969Z</time>
      </trkpt>
      <trkpt lat="51.606920" lon="-4.156068">
        <ele>92.429566</ele>
        <time>2026-05-05T13:45:43.516Z</time>
      </trkpt>
      <trkpt lat="51.606917" lon="-4.156357">
        <ele>91.782459</ele>
        <time>2026-05-05T13:45:46.180Z</time>
      </trkpt>
      <trkpt lat="51.606973" lon="-4.156878">
        <ele>90.598699</ele>
        <time>2026-05-05T13:45:50.923Z</time>
      </trkpt>
      <trkpt lat="51.607159" lon="-4.157428">
        <ele>89.196636</ele>
        <time>2026-05-05T13:45:56.387Z</time>
      </trkpt>
      <trkpt lat="51.607234" lon="-4.157812">
        <ele>88.295427</ele>
        <time>2026-05-05T13:45:59.872Z</time>
      </trkpt>
      <trkpt lat="51.607297" lon="-4.158449">
        <ele>86.851344</ele>
        <time>2026-05-05T13:46:05.474Z</time>
      </trkpt>
      <trkpt lat="51.607299" lon="-4.158740">
        <ele>86.199816</ele>
        <time>2026-05-05T13:46:08.016Z</time>
      </trkpt>
      <trkpt lat="51.607032" lon="-4.160688">
        <ele>80.567745</ele>
        <time>2026-05-05T13:46:25.341Z</time>
      </trkpt>
      <trkpt lat="51.607013" lon="-4.161021">
        <ele>79.620096</ele>
        <time>2026-05-05T13:46:28.165Z</time>
      </trkpt>
      <trkpt lat="51.607094" lon="-4.161496">
        <ele>78.224194</ele>
        <time>2026-05-05T13:46:32.248Z</time>
      </trkpt>
      <trkpt lat="51.607102" lon="-4.161807">
        <ele>77.218310</ele>
        <time>2026-05-05T13:46:34.793Z</time>
      </trkpt>
      <trkpt lat="51.607017" lon="-4.162335">
        <ele>75.337491</ele>
        <time>2026-05-05T13:46:39.209Z</time>
      </trkpt>
      <trkpt lat="51.606684" lon="-4.163476">
        <ele>70.990317</ele>
        <time>2026-05-05T13:46:49.411Z</time>
      </trkpt>
      <trkpt lat="51.606182" lon="-4.165584">
        <ele>64.957373</ele>
        <time>2026-05-05T13:47:08.720Z</time>
      </trkpt>
      <trkpt lat="51.606148" lon="-4.165660">
        <ele>64.754243</ele>
        <time>2026-05-05T13:47:09.575Z</time>
      </trkpt>
      <trkpt lat="51.606091" lon="-4.165704">
        <ele>64.533513</ele>
        <time>2026-05-05T13:47:10.507Z</time>
      </trkpt>
      <trkpt lat="51.606108" lon="-4.166026">
        <ele>63.832674</ele>
        <time>2026-05-05T13:47:12.583Z</time>
      </trkpt>
      <trkpt lat="51.606166" lon="-4.167365">
        <ele>61.152168</ele>
        <time>2026-05-05T13:47:21.533Z</time>
      </trkpt>
      <trkpt lat="51.606246" lon="-4.168413">
        <ele>59.590749</ele>
        <time>2026-05-05T13:47:28.382Z</time>
      </trkpt>
      <trkpt lat="51.606285" lon="-4.169015">
        <ele>58.695697</ele>
        <time>2026-05-05T13:47:32.318Z</time>
      </trkpt>
      <trkpt lat="51.606309" lon="-4.169229">
        <ele>58.374122</ele>
        <time>2026-05-05T13:47:33.755Z</time>
      </trkpt>
      <trkpt lat="51.606392" lon="-4.169690">
        <ele>57.664341</ele>
        <time>2026-05-05T13:47:36.951Z</time>
      </trkpt>
      <trkpt lat="51.606527" lon="-4.169852">
        <ele>57.334337</ele>
        <time>2026-05-05T13:47:38.754Z</time>
      </trkpt>
      <trkpt lat="51.606431" lon="-4.170246">
        <ele>57.152174</ele>
        <time>2026-05-05T13:47:41.636Z</time>
      </trkpt>
      <trkpt lat="51.606370" lon="-4.170621">
        <ele>56.985328</ele>
        <time>2026-05-05T13:47:44.397Z</time>
      </trkpt>
      <trkpt lat="51.606207" lon="-4.171632">
        <ele>56.535765</ele>
        <time>2026-05-05T13:47:53.043Z</time>
      </trkpt>
      <trkpt lat="51.606066" lon="-4.172966">
        <ele>56.150008</ele>
        <time>2026-05-05T13:48:06.736Z</time>
      </trkpt>
      <trkpt lat="51.606016" lon="-4.173646">
        <ele>56.209559</ele>
        <time>2026-05-05T13:48:13.439Z</time>
      </trkpt>
      <trkpt lat="51.606030" lon="-4.174149">
        <ele>56.253347</ele>
        <time>2026-05-05T13:48:18.227Z</time>
      </trkpt>
      <trkpt lat="51.606127" lon="-4.175291">
        <ele>56.353588</ele>
        <time>2026-05-05T13:48:28.738Z</time>
      </trkpt>
      <trkpt lat="51.606076" lon="-4.176314">
        <ele>56.724207</ele>
        <time>2026-05-05T13:48:38.524Z</time>
      </trkpt>
      <trkpt lat="51.606021" lon="-4.177521">
        <ele>57.229495</ele>
        <time>2026-05-05T13:48:51.948Z</time>
      </trkpt>
      <trkpt lat="51.606056" lon="-4.178682">
        <ele>57.832042</ele>
        <time>2026-05-05T13:49:05.783Z</time>
      </trkpt>
      <trkpt lat="51.606034" lon="-4.178884">
        <ele>57.991025</ele>
        <time>2026-05-05T13:49:08.297Z</time>
      </trkpt>
      <trkpt lat="51.605868" lon="-4.179976">
        <ele>58.862554</ele>
        <time>2026-05-05T13:49:22.567Z</time>
      </trkpt>
      <trkpt lat="51.605757" lon="-4.182054">
        <ele>60.086652</ele>
        <time>2026-05-05T13:49:48.148Z</time>
      </trkpt>
      <trkpt lat="51.605721" lon="-4.182928">
        <ele>60.359376</ele>
        <time>2026-05-05T13:49:57.561Z</time>
      </trkpt>
      <trkpt lat="51.605711" lon="-4.183170">
        <ele>60.434891</ele>
        <time>2026-05-05T13:49:59.976Z</time>
      </trkpt>
      <trkpt lat="51.605700" lon="-4.184026">
        <ele>60.701469</ele>
        <time>2026-05-05T13:50:07.833Z</time>
      </trkpt>
      <trkpt lat="51.605850" lon="-4.185365">
        <ele>60.095713</ele>
        <time>2026-05-05T13:50:19.285Z</time>
      </trkpt>
      <trkpt lat="51.606014" lon="-4.186598">
        <ele>59.478908</ele>
        <time>2026-05-05T13:50:29.025Z</time>
      </trkpt>
      <trkpt lat="51.606017" lon="-4.186902">
        <ele>59.330186</ele>
        <time>2026-05-05T13:50:31.216Z</time>
      </trkpt>
      <trkpt lat="51.606009" lon="-4.186980">
        <ele>59.264328</ele>
        <time>2026-05-05T13:50:31.772Z</time>
      </trkpt>
      <trkpt lat="51.605946" lon="-4.187635">
        <ele>58.408782</ele>
        <time>2026-05-05T13:50:36.372Z</time>
      </trkpt>
      <trkpt lat="51.605715" lon="-4.189689">
        <ele>55.714374</ele>
        <time>2026-05-05T13:50:50.151Z</time>
      </trkpt>
      <trkpt lat="51.605535" lon="-4.190795">
        <ele>55.147727</ele>
        <time>2026-05-05T13:50:57.989Z</time>
      </trkpt>
      <trkpt lat="51.605456" lon="-4.191679">
        <ele>54.782163</ele>
        <time>2026-05-05T13:51:05.253Z</time>
      </trkpt>
      <trkpt lat="51.605376" lon="-4.192233">
        <ele>54.549352</ele>
        <time>2026-05-05T13:51:10.886Z</time>
      </trkpt>
      <trkpt lat="51.605203" lon="-4.193042">
        <ele>54.699388</ele>
        <time>2026-05-05T13:51:20.714Z</time>
      </trkpt>
      <trkpt lat="51.605140" lon="-4.193576">
        <ele>55.077303</ele>
        <time>2026-05-05T13:51:27.728Z</time>
      </trkpt>
      <trkpt lat="51.604955" lon="-4.195899">
        <ele>56.609661</ele>
        <time>2026-05-05T13:51:56.500Z</time>
      </trkpt>
      <trkpt lat="51.604774" lon="-4.199269">
        <ele>57.685659</ele>
        <time>2026-05-05T13:52:33.335Z</time>
      </trkpt>
      <trkpt lat="51.604666" lon="-4.200328">
        <ele>57.572936</ele>
        <time>2026-05-05T13:52:42.098Z</time>
      </trkpt>
      <trkpt lat="51.604652" lon="-4.200894">
        <ele>57.513438</ele>
        <time>2026-05-05T13:52:46.516Z</time>
      </trkpt>
      <trkpt lat="51.604699" lon="-4.201864">
        <ele>57.524847</ele>
        <time>2026-05-05T13:52:54.218Z</time>
      </trkpt>
      <trkpt lat="51.604787" lon="-4.202989">
        <ele>57.605261</ele>
        <time>2026-05-05T13:53:04.673Z</time>
      </trkpt>
      <trkpt lat="51.605074" lon="-4.205276">
        <ele>58.132432</ele>
        <time>2026-05-05T13:53:30.842Z</time>
      </trkpt>
      <trkpt lat="51.605140" lon="-4.206332">
        <ele>58.523199</ele>
        <time>2026-05-05T13:53:42.854Z</time>
      </trkpt>
      <trkpt lat="51.605146" lon="-4.206847">
        <ele>58.712847</ele>
        <time>2026-05-05T13:53:48.239Z</time>
      </trkpt>
      <trkpt lat="51.604981" lon="-4.207869">
        <ele>57.481455</ele>
        <time>2026-05-05T13:53:56.969Z</time>
      </trkpt>
      <trkpt lat="51.604840" lon="-4.208487">
        <ele>56.604732</ele>
        <time>2026-05-05T13:54:01.616Z</time>
      </trkpt>
      <trkpt lat="51.604209" lon="-4.210851">
        <ele>50.195657</ele>
        <time>2026-05-05T13:54:17.256Z</time>
      </trkpt>
      <trkpt lat="51.604151" lon="-4.211356">
        <ele>48.323060</ele>
        <time>2026-05-05T13:54:20.231Z</time>
      </trkpt>
      <trkpt lat="51.604193" lon="-4.211695">
        <ele>47.062614</ele>
        <time>2026-05-05T13:54:22.183Z</time>
      </trkpt>
      <trkpt lat="51.604634" lon="-4.212193">
        <ele>43.684929</ele>
        <time>2026-05-05T13:54:26.907Z</time>
      </trkpt>
      <trkpt lat="51.604788" lon="-4.212495">
        <ele>41.554056</ele>
        <time>2026-05-05T13:54:28.999Z</time>
      </trkpt>
      <trkpt lat="51.604790" lon="-4.212681">
        <ele>40.539593</ele>
        <time>2026-05-05T13:54:29.997Z</time>
      </trkpt>
      <trkpt lat="51.604605" lon="-4.213030">
        <ele>38.037452</ele>
        <time>2026-05-05T13:54:32.446Z</time>
      </trkpt>
      <trkpt lat="51.604372" lon="-4.213324">
        <ele>35.438253</ele>
        <time>2026-05-05T13:54:35.004Z</time>
      </trkpt>
      <trkpt lat="51.604232" lon="-4.213441">
        <ele>34.053287</ele>
        <time>2026-05-05T13:54:36.366Z</time>
      </trkpt>
      <trkpt lat="51.603788" lon="-4.213656">
        <ele>29.982337</ele>
        <time>2026-05-05T13:54:40.384Z</time>
      </trkpt>
      <trkpt lat="51.603615" lon="-4.213691">
        <ele>28.520504</ele>
        <time>2026-05-05T13:54:41.926Z</time>
      </trkpt>
      <trkpt lat="51.603406" lon="-4.213659">
        <ele>28.079939</ele>
        <time>2026-05-05T13:54:43.831Z</time>
      </trkpt>
      <trkpt lat="51.603107" lon="-4.213531">
        <ele>27.430686</ele>
        <time>2026-05-05T13:54:46.820Z</time>
      </trkpt>
      <trkpt lat="51.602955" lon="-4.213517">
        <ele>27.111192</ele>
        <time>2026-05-05T13:54:48.399Z</time>
      </trkpt>
      <trkpt lat="51.602703" lon="-4.213600">
        <ele>26.571417</ele>
        <time>2026-05-05T13:54:51.257Z</time>
      </trkpt>
      <trkpt lat="51.602449" lon="-4.213478">
        <ele>26.015184</ele>
        <time>2026-05-05T13:54:56.046Z</time>
      </trkpt>
      <trkpt lat="51.602031" lon="-4.213717">
        <ele>25.084337</ele>
        <time>2026-05-05T13:55:06.182Z</time>
      </trkpt>
      <trkpt lat="51.601631" lon="-4.214141">
        <ele>25.792595</ele>
        <time>2026-05-05T13:55:20.009Z</time>
      </trkpt>
      <trkpt lat="51.601351" lon="-4.214272">
        <ele>26.703517</ele>
        <time>2026-05-05T13:55:29.557Z</time>
      </trkpt>
      <trkpt lat="51.601083" lon="-4.214196">
        <ele>27.553654</ele>
        <time>2026-05-05T13:55:38.644Z</time>
      </trkpt>
      <trkpt lat="51.599845" lon="-4.214520">
        <ele>31.198828</ele>
        <time>2026-05-05T13:56:23.508Z</time>
      </trkpt>
      <trkpt lat="51.599420" lon="-4.214564">
        <ele>32.194375</ele>
        <time>2026-05-05T13:56:37.682Z</time>
      </trkpt>
      <trkpt lat="51.599102" lon="-4.214451">
        <ele>32.955635</ele>
        <time>2026-05-05T13:56:47.466Z</time>
      </trkpt>
      <trkpt lat="51.598894" lon="-4.214378">
        <ele>33.453283</ele>
        <time>2026-05-05T13:56:53.360Z</time>
      </trkpt>
      <trkpt lat="51.598115" lon="-4.214210">
        <ele>34.827654</ele>
        <time>2026-05-05T13:57:11.861Z</time>
      </trkpt>
      <trkpt lat="51.597445" lon="-4.214117">
        <ele>35.358878</ele>
        <time>2026-05-05T13:57:24.452Z</time>
      </trkpt>
      <trkpt lat="51.597284" lon="-4.214008">
        <ele>35.496848</ele>
        <time>2026-05-05T13:57:28.267Z</time>
      </trkpt>
      <trkpt lat="51.596871" lon="-4.213396">
        <ele>35.940269</ele>
        <time>2026-05-05T13:57:42.148Z</time>
      </trkpt>
      <trkpt lat="51.596771" lon="-4.213353">
        <ele>36.070629</ele>
        <time>2026-05-05T13:57:44.937Z</time>
      </trkpt>
      <trkpt lat="51.596711" lon="-4.213214">
        <ele>36.564448</ele>
        <time>2026-05-05T13:57:47.457Z</time>
      </trkpt>
      <trkpt lat="51.596522" lon="-4.213061">
        <ele>37.558005</ele>
        <time>2026-05-05T13:57:52.787Z</time>
      </trkpt>
      <trkpt lat="51.595955" lon="-4.212975">
        <ele>40.232728</ele>
        <time>2026-05-05T13:58:10.355Z</time>
      </trkpt>
      <trkpt lat="51.595795" lon="-4.212847">
        <ele>41.071850</ele>
        <time>2026-05-05T13:58:16.789Z</time>
      </trkpt>
      <trkpt lat="51.595737" lon="-4.212656">
        <ele>41.692109</ele>
        <time>2026-05-05T13:58:21.936Z</time>
      </trkpt>
      <trkpt lat="51.595722" lon="-4.211387">
        <ele>46.006640</ele>
        <time>2026-05-05T13:58:54.289Z</time>
      </trkpt>
      <trkpt lat="51.595689" lon="-4.211184">
        <ele>47.019025</ele>
        <time>2026-05-05T13:59:00.104Z</time>
      </trkpt>
      <trkpt lat="51.595604" lon="-4.211046">
        <ele>47.956632</ele>
        <time>2026-05-05T13:59:05.525Z</time>
      </trkpt>
      <trkpt lat="51.594971" lon="-4.210473">
        <ele>53.596871</ele>
        <time>2026-05-05T13:59:39.663Z</time>
      </trkpt>
      <trkpt lat="51.594761" lon="-4.209977">
        <ele>56.492888</ele>
        <time>2026-05-05T13:59:57.743Z</time>
      </trkpt>
      <trkpt lat="51.593920" lon="-4.207576">
        <ele>69.593885</ele>
        <time>2026-05-05T14:01:19.177Z</time>
      </trkpt>
      <trkpt lat="51.593393" lon="-4.206658">
        <ele>74.746103</ele>
        <time>2026-05-05T14:01:49.427Z</time>
      </trkpt>
      <trkpt lat="51.593153" lon="-4.206082">
        <ele>77.278236</ele>
        <time>2026-05-05T14:02:04.739Z</time>
      </trkpt>
      <trkpt lat="51.592845" lon="-4.205103">
        <ele>81.284713</ele>
        <time>2026-05-05T14:02:30.092Z</time>
      </trkpt>
      <trkpt lat="51.592844" lon="-4.205098">
        <ele>81.303891</ele>
        <time>2026-05-05T14:02:30.210Z</time>
      </trkpt>
      <trkpt lat="51.592778" lon="-4.204738">
        <ele>82.674277</ele>
        <time>2026-05-05T14:02:39.291Z</time>
      </trkpt>
      <trkpt lat="51.592645" lon="-4.203644">
        <ele>87.054209</ele>
        <time>2026-05-05T14:03:07.742Z</time>
      </trkpt>
      <trkpt lat="51.592392" lon="-4.202270">
        <ele>92.689970</ele>
        <time>2026-05-05T14:03:44.481Z</time>
      </trkpt>
      <trkpt lat="51.592197" lon="-4.201633">
        <ele>95.335502</ele>
        <time>2026-05-05T14:04:01.605Z</time>
      </trkpt>
      <trkpt lat="51.591827" lon="-4.200212">
        <ele>100.744672</ele>
        <time>2026-05-05T14:04:37.723Z</time>
      </trkpt>
      <trkpt lat="51.591449" lon="-4.197970">
        <ele>106.754551</ele>
        <time>2026-05-05T14:05:29.415Z</time>
      </trkpt>
      <trkpt lat="51.591252" lon="-4.196940">
        <ele>108.782745</ele>
        <time>2026-05-05T14:05:46.715Z</time>
      </trkpt>
      <trkpt lat="51.591009" lon="-4.196079">
        <ele>108.906977</ele>
        <time>2026-05-05T14:05:54.743Z</time>
      </trkpt>
      <trkpt lat="51.590924" lon="-4.195798">
        <ele>108.334354</ele>
        <time>2026-05-05T14:05:56.854Z</time>
      </trkpt>
      <trkpt lat="51.590592" lon="-4.195168">
        <ele>106.820761</ele>
        <time>2026-05-05T14:06:01.890Z</time>
      </trkpt>
      <trkpt lat="51.590252" lon="-4.194535">
        <ele>105.287640</ele>
        <time>2026-05-05T14:06:06.856Z</time>
      </trkpt>
      <trkpt lat="51.590162" lon="-4.194428">
        <ele>104.957670</ele>
        <time>2026-05-05T14:06:07.922Z</time>
      </trkpt>
      <trkpt lat="51.589785" lon="-4.194159">
        <ele>104.366326</ele>
        <time>2026-05-05T14:06:11.904Z</time>
      </trkpt>
      <trkpt lat="51.589472" lon="-4.193644">
        <ele>104.263142</ele>
        <time>2026-05-05T14:06:16.696Z</time>
      </trkpt>
      <trkpt lat="51.589258" lon="-4.193245">
        <ele>104.187648</ele>
        <time>2026-05-05T14:06:21.062Z</time>
      </trkpt>
      <trkpt lat="51.589160" lon="-4.193002">
        <ele>104.146155</ele>
        <time>2026-05-05T14:06:24.298Z</time>
      </trkpt>
      <trkpt lat="51.589135" lon="-4.192910">
        <ele>104.131773</ele>
        <time>2026-05-05T14:06:25.566Z</time>
      </trkpt>
      <trkpt lat="51.588755" lon="-4.191507">
        <ele>104.974149</ele>
        <time>2026-05-05T14:06:51.618Z</time>
      </trkpt>
      <trkpt lat="51.588588" lon="-4.191027">
        <ele>105.803467</ele>
        <time>2026-05-05T14:07:02.656Z</time>
      </trkpt>
      <trkpt lat="51.588513" lon="-4.190670">
        <ele>106.371573</ele>
        <time>2026-05-05T14:07:09.378Z</time>
      </trkpt>
      <trkpt lat="51.588538" lon="-4.190099">
        <ele>107.234483</ele>
        <time>2026-05-05T14:07:18.058Z</time>
      </trkpt>
      <trkpt lat="51.588475" lon="-4.189736">
        <ele>107.802649</ele>
        <time>2026-05-05T14:07:22.644Z</time>
      </trkpt>
      <trkpt lat="51.588406" lon="-4.189498">
        <ele>108.198570</ele>
        <time>2026-05-05T14:07:25.558Z</time>
      </trkpt>
      <trkpt lat="51.588328" lon="-4.189316">
        <ele>108.360077</ele>
        <time>2026-05-05T14:07:27.821Z</time>
      </trkpt>
      <trkpt lat="51.588254" lon="-4.189142">
        <ele>108.343142</ele>
        <time>2026-05-05T14:07:29.858Z</time>
      </trkpt>
      <trkpt lat="51.587777" lon="-4.188480">
        <ele>108.261726</ele>
        <time>2026-05-05T14:07:37.935Z</time>
      </trkpt>
      <trkpt lat="51.587315" lon="-4.187569">
        <ele>108.167281</ele>
        <time>2026-05-05T14:07:47.493Z</time>
      </trkpt>
      <trkpt lat="51.587033" lon="-4.186990">
        <ele>108.261085</ele>
        <time>2026-05-05T14:07:54.782Z</time>
      </trkpt>
      <trkpt lat="51.586792" lon="-4.186439">
        <ele>108.501719</ele>
        <time>2026-05-05T14:08:02.300Z</time>
      </trkpt>
      <trkpt lat="51.586630" lon="-4.186092">
        <ele>108.656720</ele>
        <time>2026-05-05T14:08:07.264Z</time>
      </trkpt>
      <trkpt lat="51.586483" lon="-4.185678">
        <ele>108.827004</ele>
        <time>2026-05-05T14:08:12.818Z</time>
      </trkpt>
      <trkpt lat="51.586150" lon="-4.184437">
        <ele>108.860118</ele>
        <time>2026-05-05T14:08:27.108Z</time>
      </trkpt>
      <trkpt lat="51.585855" lon="-4.183664">
        <ele>108.141378</ele>
        <time>2026-05-05T14:08:35.689Z</time>
      </trkpt>
      <trkpt lat="51.585580" lon="-4.182742">
        <ele>107.331074</ele>
        <time>2026-05-05T14:08:43.094Z</time>
      </trkpt>
      <trkpt lat="51.585287" lon="-4.182163">
        <ele>106.247881</ele>
        <time>2026-05-05T14:08:47.772Z</time>
      </trkpt>
      <trkpt lat="51.585143" lon="-4.181990">
        <ele>105.197160</ele>
        <time>2026-05-05T14:08:49.502Z</time>
      </trkpt>
      <trkpt lat="51.584674" lon="-4.181844">
        <ele>102.403995</ele>
        <time>2026-05-05T14:08:53.941Z</time>
      </trkpt>
      <trkpt lat="51.584291" lon="-4.181777">
        <ele>100.151327</ele>
        <time>2026-05-05T14:08:57.427Z</time>
      </trkpt>
      <trkpt lat="51.583469" lon="-4.181877">
        <ele>95.215421</ele>
        <time>2026-05-05T14:09:04.799Z</time>
      </trkpt>
      <trkpt lat="51.583257" lon="-4.181822">
        <ele>93.818416</ele>
        <time>2026-05-05T14:09:06.722Z</time>
      </trkpt>
      <trkpt lat="51.583050" lon="-4.181814">
        <ele>92.471356</ele>
        <time>2026-05-05T14:09:08.580Z</time>
      </trkpt>
      <trkpt lat="51.582504" lon="-4.181931">
        <ele>88.887916</ele>
        <time>2026-05-05T14:09:13.550Z</time>
      </trkpt>
      <trkpt lat="51.582199" lon="-4.182098">
        <ele>86.791987</ele>
        <time>2026-05-05T14:09:16.490Z</time>
      </trkpt>
      <trkpt lat="51.581998" lon="-4.182232">
        <ele>85.376586</ele>
        <time>2026-05-05T14:09:18.486Z</time>
      </trkpt>
      <trkpt lat="51.581945" lon="-4.182237">
        <ele>85.031194</ele>
        <time>2026-05-05T14:09:18.978Z</time>
      </trkpt>
      <trkpt lat="51.581336" lon="-4.182208">
        <ele>82.679506</ele>
        <time>2026-05-05T14:09:24.644Z</time>
      </trkpt>
      <trkpt lat="51.580137" lon="-4.182314">
        <ele>78.374624</ele>
        <time>2026-05-05T14:09:36.753Z</time>
      </trkpt>
      <trkpt lat="51.579865" lon="-4.182365">
        <ele>78.615854</ele>
        <time>2026-05-05T14:09:40.336Z</time>
      </trkpt>
      <trkpt lat="51.579783" lon="-4.181371">
        <ele>79.725270</ele>
        <time>2026-05-05T14:09:52.358Z</time>
      </trkpt>
      <trkpt lat="51.579751" lon="-4.179754">
        <ele>81.563181</ele>
        <time>2026-05-05T14:10:21.865Z</time>
      </trkpt>
      <trkpt lat="51.579751" lon="-4.179415">
        <ele>82.113129</ele>
        <time>2026-05-05T14:10:28.288Z</time>
      </trkpt>
      <trkpt lat="51.579863" lon="-4.178177">
        <ele>84.142662</ele>
        <time>2026-05-05T14:10:50.121Z</time>
      </trkpt>
      <trkpt lat="51.579903" lon="-4.177580">
        <ele>85.116765</ele>
        <time>2026-05-05T14:10:59.428Z</time>
      </trkpt>
      <trkpt lat="51.579822" lon="-4.175927">
        <ele>85.330060</ele>
        <time>2026-05-05T14:11:17.816Z</time>
      </trkpt>
      <trkpt lat="51.579697" lon="-4.175147">
        <ele>84.731749</ele>
        <time>2026-05-05T14:11:23.623Z</time>
      </trkpt>
      <trkpt lat="51.579511" lon="-4.174232">
        <ele>84.016680</ele>
        <time>2026-05-05T14:11:29.861Z</time>
      </trkpt>
      <trkpt lat="51.579307" lon="-4.173389">
        <ele>81.823362</ele>
        <time>2026-05-05T14:11:35.399Z</time>
      </trkpt>
      <trkpt lat="51.579223" lon="-4.173047">
        <ele>80.872635</ele>
        <time>2026-05-05T14:11:37.609Z</time>
      </trkpt>
      <trkpt lat="51.579055" lon="-4.172564">
        <ele>79.441640</ele>
        <time>2026-05-05T14:11:40.900Z</time>
      </trkpt>
      <trkpt lat="51.578725" lon="-4.171713">
        <ele>76.848330</ele>
        <time>2026-05-05T14:11:46.855Z</time>
      </trkpt>
      <trkpt lat="51.578567" lon="-4.170974">
        <ele>74.866008</ele>
        <time>2026-05-05T14:11:51.472Z</time>
      </trkpt>
      <trkpt lat="51.577872" lon="-4.169758">
        <ele>70.693690</ele>
        <time>2026-05-05T14:12:01.337Z</time>
      </trkpt>
      <trkpt lat="51.577546" lon="-4.169095">
        <ele>68.921962</ele>
        <time>2026-05-05T14:12:06.636Z</time>
      </trkpt>
      <trkpt lat="51.576903" lon="-4.167569">
        <ele>67.052392</ele>
        <time>2026-05-05T14:12:19.934Z</time>
      </trkpt>
      <trkpt lat="51.576572" lon="-4.166964">
        <ele>66.235030</ele>
        <time>2026-05-05T14:12:26.259Z</time>
      </trkpt>
      <trkpt lat="51.576405" lon="-4.166708">
        <ele>66.032944</ele>
        <time>2026-05-05T14:12:29.026Z</time>
      </trkpt>
      <trkpt lat="51.576109" lon="-4.166456">
        <ele>65.742335</ele>
        <time>2026-05-05T14:12:33.023Z</time>
      </trkpt>
      <trkpt lat="51.575436" lon="-4.166031">
        <ele>65.114932</ele>
        <time>2026-05-05T14:12:41.859Z</time>
      </trkpt>
      <trkpt lat="51.575215" lon="-4.165743">
        <ele>64.868136</ele>
        <time>2026-05-05T14:12:45.480Z</time>
      </trkpt>
      <trkpt lat="51.575087" lon="-4.165484">
        <ele>64.689668</ele>
        <time>2026-05-05T14:12:48.195Z</time>
      </trkpt>
      <trkpt lat="51.574844" lon="-4.165177">
        <ele>64.770713</ele>
        <time>2026-05-05T14:12:52.308Z</time>
      </trkpt>
      <trkpt lat="51.574783" lon="-4.165047">
        <ele>64.806304</ele>
        <time>2026-05-05T14:12:53.679Z</time>
      </trkpt>
      <trkpt lat="51.574578" lon="-4.164231">
        <ele>64.998613</ele>
        <time>2026-05-05T14:13:02.034Z</time>
      </trkpt>
      <trkpt lat="51.574374" lon="-4.163189">
        <ele>65.237316</ele>
        <time>2026-05-05T14:13:14.216Z</time>
      </trkpt>
      <trkpt lat="51.574385" lon="-4.163019">
        <ele>65.274662</ele>
        <time>2026-05-05T14:13:16.212Z</time>
      </trkpt>
      <trkpt lat="51.574466" lon="-4.162678">
        <ele>65.638353</ele>
        <time>2026-05-05T14:13:20.480Z</time>
      </trkpt>
      <trkpt lat="51.574564" lon="-4.162382">
        <ele>66.111453</ele>
        <time>2026-05-05T14:13:24.519Z</time>
      </trkpt>
      <trkpt lat="51.574741" lon="-4.161998">
        <ele>66.785855</ele>
        <time>2026-05-05T14:13:30.938Z</time>
      </trkpt>
      <trkpt lat="51.574834" lon="-4.161649">
        <ele>67.321509</ele>
        <time>2026-05-05T14:13:36.738Z</time>
      </trkpt>
      <trkpt lat="51.574927" lon="-4.160703">
        <ele>68.672551</ele>
        <time>2026-05-05T14:13:52.827Z</time>
      </trkpt>
      <trkpt lat="51.575016" lon="-4.160090">
        <ele>69.599194</ele>
        <time>2026-05-05T14:14:03.418Z</time>
      </trkpt>
      <trkpt lat="51.575024" lon="-4.159620">
        <ele>70.408326</ele>
        <time>2026-05-05T14:14:11.221Z</time>
      </trkpt>
      <trkpt lat="51.575104" lon="-4.158751">
        <ele>71.920116</ele>
        <time>2026-05-05T14:14:25.498Z</time>
      </trkpt>
      <trkpt lat="51.575281" lon="-4.157994">
        <ele>73.311988</ele>
        <time>2026-05-05T14:14:38.355Z</time>
      </trkpt>
      <trkpt lat="51.575418" lon="-4.157019">
        <ele>74.823419</ele>
        <time>2026-05-05T14:14:53.882Z</time>
      </trkpt>
      <trkpt lat="51.575442" lon="-4.156251">
        <ele>75.732429</ele>
        <time>2026-05-05T14:15:05.658Z</time>
      </trkpt>
      <trkpt lat="51.575536" lon="-4.154798">
        <ele>77.459317</ele>
        <time>2026-05-05T14:15:25.945Z</time>
      </trkpt>
      <trkpt lat="51.575529" lon="-4.154103">
        <ele>77.858741</ele>
        <time>2026-05-05T14:15:33.626Z</time>
      </trkpt>
      <trkpt lat="51.575432" lon="-4.153210">
        <ele>78.015341</ele>
        <time>2026-05-05T14:15:42.263Z</time>
      </trkpt>
      <trkpt lat="51.575401" lon="-4.152853">
        <ele>78.077610</ele>
        <time>2026-05-05T14:15:45.424Z</time>
      </trkpt>
      <trkpt lat="51.575247" lon="-4.152048">
        <ele>78.223109</ele>
        <time>2026-05-05T14:15:52.984Z</time>
      </trkpt>
      <trkpt lat="51.575211" lon="-4.151523">
        <ele>78.328197</ele>
        <time>2026-05-05T14:15:57.899Z</time>
      </trkpt>
      <trkpt lat="51.575198" lon="-4.149818">
        <ele>78.768768</ele>
        <time>2026-05-05T14:16:15.856Z</time>
      </trkpt>
      <trkpt lat="51.575161" lon="-4.149329">
        <ele>78.896049</ele>
        <time>2026-05-05T14:16:21.474Z</time>
      </trkpt>
      <trkpt lat="51.575161" lon="-4.148686">
        <ele>78.999314</ele>
        <time>2026-05-05T14:16:28.237Z</time>
      </trkpt>
      <trkpt lat="51.575258" lon="-4.147574">
        <ele>78.637734</ele>
        <time>2026-05-05T14:16:38.598Z</time>
      </trkpt>
      <trkpt lat="51.575258" lon="-4.146632">
        <ele>78.334406</ele>
        <time>2026-05-05T14:16:46.216Z</time>
      </trkpt>
      <trkpt lat="51.575218" lon="-4.146223">
        <ele>78.201085</ele>
        <time>2026-05-05T14:16:49.289Z</time>
      </trkpt>
      <trkpt lat="51.575166" lon="-4.145942">
        <ele>78.106676</ele>
        <time>2026-05-05T14:16:51.359Z</time>
      </trkpt>
      <trkpt lat="51.575094" lon="-4.145626">
        <ele>77.881509</ele>
        <time>2026-05-05T14:16:53.668Z</time>
      </trkpt>
      <trkpt lat="51.575041" lon="-4.145394">
        <ele>77.712522</ele>
        <time>2026-05-05T14:16:55.352Z</time>
      </trkpt>
      <trkpt lat="51.575004" lon="-4.145080">
        <ele>77.494025</ele>
        <time>2026-05-05T14:16:57.518Z</time>
      </trkpt>
      <trkpt lat="51.574818" lon="-4.143131">
        <ele>76.145933</ele>
        <time>2026-05-05T14:17:12.054Z</time>
      </trkpt>
      <trkpt lat="51.574656" lon="-4.142055">
        <ele>77.151843</ele>
        <time>2026-05-05T14:17:24.976Z</time>
      </trkpt>
      <trkpt lat="51.574604" lon="-4.141015">
        <ele>78.150128</ele>
        <time>2026-05-05T14:17:40.891Z</time>
      </trkpt>
      <trkpt lat="51.574613" lon="-4.140347">
        <ele>78.789419</ele>
        <time>2026-05-05T14:17:51.272Z</time>
      </trkpt>
      <trkpt lat="51.574568" lon="-4.138256">
        <ele>80.621218</ele>
        <time>2026-05-05T14:18:19.597Z</time>
      </trkpt>
      <trkpt lat="51.574590" lon="-4.137739">
        <ele>81.072627</ele>
        <time>2026-05-05T14:18:25.358Z</time>
      </trkpt>
      <trkpt lat="51.574653" lon="-4.137396">
        <ele>81.384187</ele>
        <time>2026-05-05T14:18:29.002Z</time>
      </trkpt>
      <trkpt lat="51.574869" lon="-4.136709">
        <ele>81.790188</ele>
        <time>2026-05-05T14:18:36.339Z</time>
      </trkpt>
      <trkpt lat="51.575151" lon="-4.135563">
        <ele>82.420649</ele>
        <time>2026-05-05T14:18:49.238Z</time>
      </trkpt>
      <trkpt lat="51.575171" lon="-4.135472">
        <ele>82.470021</ele>
        <time>2026-05-05T14:18:50.345Z</time>
      </trkpt>
      <trkpt lat="51.575271" lon="-4.134739">
        <ele>82.853880</ele>
        <time>2026-05-05T14:18:59.622Z</time>
      </trkpt>
      <trkpt lat="51.575443" lon="-4.134049">
        <ele>83.667645</ele>
        <time>2026-05-05T14:19:09.916Z</time>
      </trkpt>
      <trkpt lat="51.575512" lon="-4.133658">
        <ele>84.140546</ele>
        <time>2026-05-05T14:19:16.084Z</time>
      </trkpt>
      <trkpt lat="51.575530" lon="-4.133395">
        <ele>84.448388</ele>
        <time>2026-05-05T14:19:20.147Z</time>
      </trkpt>
      <trkpt lat="51.575423" lon="-4.131691">
        <ele>86.197685</ele>
        <time>2026-05-05T14:19:44.807Z</time>
      </trkpt>
      <trkpt lat="51.575431" lon="-4.131236">
        <ele>86.010385</ele>
        <time>2026-05-05T14:19:50.525Z</time>
      </trkpt>
      <trkpt lat="51.575604" lon="-4.129811">
        <ele>85.412940</ele>
        <time>2026-05-05T14:20:03.188Z</time>
      </trkpt>
      <trkpt lat="51.575656" lon="-4.129537">
        <ele>85.295054</ele>
        <time>2026-05-05T14:20:05.170Z</time>
      </trkpt>
      <trkpt lat="51.575723" lon="-4.129167">
        <ele>85.136475</ele>
        <time>2026-05-05T14:20:07.669Z</time>
      </trkpt>
      <trkpt lat="51.575779" lon="-4.128769">
        <ele>84.314602</ele>
        <time>2026-05-05T14:20:10.221Z</time>
      </trkpt>
      <trkpt lat="51.575689" lon="-4.127556">
        <ele>80.583584</ele>
        <time>2026-05-05T14:20:17.357Z</time>
      </trkpt>
      <trkpt lat="51.575772" lon="-4.126768">
        <ele>78.142576</ele>
        <time>2026-05-05T14:20:21.922Z</time>
      </trkpt>
      <trkpt lat="51.575817" lon="-4.126171">
        <ele>76.305876</ele>
        <time>2026-05-05T14:20:25.367Z</time>
      </trkpt>
      <trkpt lat="51.575893" lon="-4.125781">
        <ele>75.685551</ele>
        <time>2026-05-05T14:20:27.730Z</time>
      </trkpt>
      <trkpt lat="51.576220" lon="-4.124933">
        <ele>74.268460</ele>
        <time>2026-05-05T14:20:33.749Z</time>
      </trkpt>
      <trkpt lat="51.576472" lon="-4.123996">
        <ele>72.818720</ele>
        <time>2026-05-05T14:20:41.018Z</time>
      </trkpt>
      <trkpt lat="51.576972" lon="-4.121980">
        <ele>75.054553</ele>
        <time>2026-05-05T14:21:12.338Z</time>
      </trkpt>
      <trkpt lat="51.577424" lon="-4.120849">
        <ele>77.292505</ele>
        <time>2026-05-05T14:21:39.381Z</time>
      </trkpt>
      <trkpt lat="51.577724" lon="-4.120002">
        <ele>78.170799</ele>
        <time>2026-05-05T14:21:58.064Z</time>
      </trkpt>
      <trkpt lat="51.578056" lon="-4.119415">
        <ele>78.885847</ele>
        <time>2026-05-05T14:22:09.300Z</time>
      </trkpt>
      <trkpt lat="51.578141" lon="-4.119225">
        <ele>79.096755</ele>
        <time>2026-05-05T14:22:11.671Z</time>
      </trkpt>
      <trkpt lat="51.578368" lon="-4.118935">
        <ele>79.516927</ele>
        <time>2026-05-05T14:22:15.391Z</time>
      </trkpt>
      <trkpt lat="51.578701" lon="-4.118396">
        <ele>78.479732</ele>
        <time>2026-05-05T14:22:20.409Z</time>
      </trkpt>
      <trkpt lat="51.579553" lon="-4.115673">
        <ele>69.739264</ele>
        <time>2026-05-05T14:22:38.084Z</time>
      </trkpt>
      <trkpt lat="51.580017" lon="-4.114334">
        <ele>64.951650</ele>
        <time>2026-05-05T14:22:47.046Z</time>
      </trkpt>
      <trkpt lat="51.580245" lon="-4.112565">
        <ele>59.340462</ele>
        <time>2026-05-05T14:22:57.733Z</time>
      </trkpt>
      <trkpt lat="51.580311" lon="-4.111366">
        <ele>55.616165</ele>
        <time>2026-05-05T14:23:04.768Z</time>
      </trkpt>
      <trkpt lat="51.580440" lon="-4.110713">
        <ele>53.473005</ele>
        <time>2026-05-05T14:23:08.758Z</time>
      </trkpt>
      <trkpt lat="51.580805" lon="-4.110243">
        <ele>50.852007</ele>
        <time>2026-05-05T14:23:13.146Z</time>
      </trkpt>
      <trkpt lat="51.581320" lon="-4.108197">
        <ele>42.879076</ele>
        <time>2026-05-05T14:23:25.937Z</time>
      </trkpt>
      <trkpt lat="51.581568" lon="-4.106858">
        <ele>34.848646</ele>
        <time>2026-05-05T14:23:33.583Z</time>
      </trkpt>
      <trkpt lat="51.581741" lon="-4.105659">
        <ele>27.774131</ele>
        <time>2026-05-05T14:23:40.069Z</time>
      </trkpt>
      <trkpt lat="51.581844" lon="-4.105172">
        <ele>25.492808</ele>
        <time>2026-05-05T14:23:42.786Z</time>
      </trkpt>
      <trkpt lat="51.581965" lon="-4.104813">
        <ele>23.885834</ele>
        <time>2026-05-05T14:23:44.953Z</time>
      </trkpt>
      <trkpt lat="51.582076" lon="-4.104483">
        <ele>22.409355</ele>
        <time>2026-05-05T14:23:46.964Z</time>
      </trkpt>
      <trkpt lat="51.582489" lon="-4.103449">
        <ele>17.572894</ele>
        <time>2026-05-05T14:23:54.096Z</time>
      </trkpt>
      <trkpt lat="51.582541" lon="-4.103285">
        <ele>16.848457</ele>
        <time>2026-05-05T14:23:55.372Z</time>
      </trkpt>
      <trkpt lat="51.582665" lon="-4.102848">
        <ele>15.735529</ele>
        <time>2026-05-05T14:23:59.394Z</time>
      </trkpt>
      <trkpt lat="51.582692" lon="-4.102190">
        <ele>16.439504</ele>
        <time>2026-05-05T14:24:07.116Z</time>
      </trkpt>
      <trkpt lat="51.582687" lon="-4.101259">
        <ele>17.433425</ele>
        <time>2026-05-05T14:24:21.769Z</time>
      </trkpt>
      <trkpt lat="51.582679" lon="-4.100891">
        <ele>17.826522</ele>
        <time>2026-05-05T14:24:28.260Z</time>
      </trkpt>
      <trkpt lat="51.582586" lon="-4.099403">
        <ele>19.471344</ele>
        <time>2026-05-05T14:24:52.017Z</time>
      </trkpt>
      <trkpt lat="51.582613" lon="-4.098542">
        <ele>20.449903</ele>
        <time>2026-05-05T14:25:05.417Z</time>
      </trkpt>
      <trkpt lat="51.582604" lon="-4.098134">
        <ele>20.913313</ele>
        <time>2026-05-05T14:25:11.121Z</time>
      </trkpt>
      <trkpt lat="51.582130" lon="-4.096118">
        <ele>22.193078</ele>
        <time>2026-05-05T14:25:33.653Z</time>
      </trkpt>
      <trkpt lat="51.582091" lon="-4.095741">
        <ele>22.269051</ele>
        <time>2026-05-05T14:25:36.895Z</time>
      </trkpt>
      <trkpt lat="51.582090" lon="-4.095372">
        <ele>22.342404</ele>
        <time>2026-05-05T14:25:39.896Z</time>
      </trkpt>
      <trkpt lat="51.582111" lon="-4.094952">
        <ele>22.426163</ele>
        <time>2026-05-05T14:25:43.413Z</time>
      </trkpt>
      <trkpt lat="51.582149" lon="-4.094726">
        <ele>22.472704</ele>
        <time>2026-05-05T14:25:45.506Z</time>
      </trkpt>
      <trkpt lat="51.582152" lon="-4.094488">
        <ele>22.520025</ele>
        <time>2026-05-05T14:25:47.875Z</time>
      </trkpt>
      <trkpt lat="51.582106" lon="-4.093831">
        <ele>24.422542</ele>
        <time>2026-05-05T14:25:55.479Z</time>
      </trkpt>
      <trkpt lat="51.582135" lon="-4.093197">
        <ele>26.260959</ele>
        <time>2026-05-05T14:26:06.554Z</time>
      </trkpt>
      <trkpt lat="51.582248" lon="-4.092438">
        <ele>28.518019</ele>
        <time>2026-05-05T14:26:24.157Z</time>
      </trkpt>
      <trkpt lat="51.582288" lon="-4.092314">
        <ele>28.922052</ele>
        <time>2026-05-05T14:26:27.720Z</time>
      </trkpt>
      <trkpt lat="51.582311" lon="-4.092163">
        <ele>29.371652</ele>
        <time>2026-05-05T14:26:32.136Z</time>
      </trkpt>
      <trkpt lat="51.582373" lon="-4.091774">
        <ele>30.533006</ele>
        <time>2026-05-05T14:26:44.210Z</time>
      </trkpt>
      <trkpt lat="51.582378" lon="-4.091507">
        <ele>31.532626</ele>
        <time>2026-05-05T14:26:52.913Z</time>
      </trkpt>
      <trkpt lat="51.582318" lon="-4.090776">
        <ele>34.834596</ele>
        <time>2026-05-05T14:27:17.661Z</time>
      </trkpt>
      <trkpt lat="51.582196" lon="-4.089688">
        <ele>39.785537</ele>
        <time>2026-05-05T14:27:50.843Z</time>
      </trkpt>
      <trkpt lat="51.582209" lon="-4.089076">
        <ele>42.527781</ele>
        <time>2026-05-05T14:28:05.110Z</time>
      </trkpt>
      <trkpt lat="51.582409" lon="-4.087574">
        <ele>45.888514</ele>
        <time>2026-05-05T14:28:31.852Z</time>
      </trkpt>
      <trkpt lat="51.582536" lon="-4.087177">
        <ele>46.621243</ele>
        <time>2026-05-05T14:28:38.259Z</time>
      </trkpt>
      <trkpt lat="51.582729" lon="-4.086748">
        <ele>47.490354</ele>
        <time>2026-05-05T14:28:45.727Z</time>
      </trkpt>
      <trkpt lat="51.582916" lon="-4.085943">
        <ele>48.737940</ele>
        <time>2026-05-05T14:28:57.343Z</time>
      </trkpt>
      <trkpt lat="51.583069" lon="-4.084741">
        <ele>49.648724</ele>
        <time>2026-05-05T14:29:11.355Z</time>
      </trkpt>
      <trkpt lat="51.583236" lon="-4.084098">
        <ele>50.166042</ele>
        <time>2026-05-05T14:29:18.911Z</time>
      </trkpt>
      <trkpt lat="51.583536" lon="-4.083726">
        <ele>50.618470</ele>
        <time>2026-05-05T14:29:26.151Z</time>
      </trkpt>
      <trkpt lat="51.583974" lon="-4.083306">
        <ele>51.847258</ele>
        <time>2026-05-05T14:29:37.430Z</time>
      </trkpt>
      <trkpt lat="51.584513" lon="-4.083017">
        <ele>53.410840</ele>
        <time>2026-05-05T14:29:52.601Z</time>
      </trkpt>
      <trkpt lat="51.584880" lon="-4.082717">
        <ele>54.543707</ele>
        <time>2026-05-05T14:30:04.337Z</time>
      </trkpt>
      <trkpt lat="51.585179" lon="-4.082107">
        <ele>55.831033</ele>
        <time>2026-05-05T14:30:18.064Z</time>
      </trkpt>
      <trkpt lat="51.585285" lon="-4.081565">
        <ele>56.566433</ele>
        <time>2026-05-05T14:30:27.813Z</time>
      </trkpt>
      <trkpt lat="51.585268" lon="-4.081307">
        <ele>56.902216</ele>
        <time>2026-05-05T14:30:32.184Z</time>
      </trkpt>
      <trkpt lat="51.584955" lon="-4.079913">
        <ele>58.820561</ele>
        <time>2026-05-05T14:30:53.031Z</time>
      </trkpt>
      <trkpt lat="51.584958" lon="-4.079549">
        <ele>59.291705</ele>
        <time>2026-05-05T14:30:57.138Z</time>
      </trkpt>
      <trkpt lat="51.585306" lon="-4.077899">
        <ele>60.158379</ele>
        <time>2026-05-05T14:31:15.043Z</time>
      </trkpt>
      <trkpt lat="51.585433" lon="-4.077272">
        <ele>60.447023</ele>
        <time>2026-05-05T14:31:21.630Z</time>
      </trkpt>
      <trkpt lat="51.585510" lon="-4.076548">
        <ele>60.854898</ele>
        <time>2026-05-05T14:31:30.128Z</time>
      </trkpt>
      <trkpt lat="51.585522" lon="-4.075816">
        <ele>61.701231</ele>
        <time>2026-05-05T14:31:39.706Z</time>
      </trkpt>
      <trkpt lat="51.585498" lon="-4.075011">
        <ele>62.632713</ele>
        <time>2026-05-05T14:31:50.760Z</time>
      </trkpt>
      <trkpt lat="51.585546" lon="-4.074596">
        <ele>63.120605</ele>
        <time>2026-05-05T14:31:56.785Z</time>
      </trkpt>
      <trkpt lat="51.585611" lon="-4.074270">
        <ele>63.516317</ele>
        <time>2026-05-05T14:32:01.813Z</time>
      </trkpt>
      <trkpt lat="51.585785" lon="-4.073883">
        <ele>64.067781</ele>
        <time>2026-05-05T14:32:09.223Z</time>
      </trkpt>
      <trkpt lat="51.586252" lon="-4.073157">
        <ele>65.161360</ele>
        <time>2026-05-05T14:32:25.965Z</time>
      </trkpt>
      <trkpt lat="51.586565" lon="-4.072879">
        <ele>65.763486</ele>
        <time>2026-05-05T14:32:33.985Z</time>
      </trkpt>
      <trkpt lat="51.586821" lon="-4.072482">
        <ele>66.362249</ele>
        <time>2026-05-05T14:32:41.095Z</time>
      </trkpt>
      <trkpt lat="51.586214" lon="-4.071754">
        <ele>67.348722</ele>
        <time>2026-05-05T14:32:54.319Z</time>
      </trkpt>
      <trkpt lat="51.585928" lon="-4.071485">
        <ele>67.611950</ele>
        <time>2026-05-05T14:32:59.194Z</time>
      </trkpt>
      <trkpt lat="51.585819" lon="-4.071430">
        <ele>67.702722</ele>
        <time>2026-05-05T14:33:00.755Z</time>
      </trkpt>
      <trkpt lat="51.585675" lon="-4.071356">
        <ele>67.822841</ele>
        <time>2026-05-05T14:33:02.938Z</time>
      </trkpt>
      <trkpt lat="51.583675" lon="-4.070970">
        <ele>70.428075</ele>
        <time>2026-05-05T14:33:43.855Z</time>
      </trkpt>
      <trkpt lat="51.583222" lon="-4.070852">
        <ele>71.198303</ele>
        <time>2026-05-05T14:33:54.903Z</time>
      </trkpt>
      <trkpt lat="51.583220" lon="-4.070852">
        <ele>71.201660</ele>
        <time>2026-05-05T14:33:54.941Z</time>
      </trkpt>
      <trkpt lat="51.582548" lon="-4.070906">
        <ele>72.058957</ele>
        <time>2026-05-05T14:34:10.241Z</time>
      </trkpt>
      <trkpt lat="51.582195" lon="-4.071109">
        <ele>72.471985</ele>
        <time>2026-05-05T14:34:18.414Z</time>
      </trkpt>
      <trkpt lat="51.581815" lon="-4.071327">
        <ele>72.916484</ele>
        <time>2026-05-05T14:34:26.272Z</time>
      </trkpt>
      <trkpt lat="51.581295" lon="-4.071626">
        <ele>73.519251</ele>
        <time>2026-05-05T14:34:34.886Z</time>
      </trkpt>
      <trkpt lat="51.581008" lon="-4.071661">
        <ele>73.382427</ele>
        <time>2026-05-05T14:34:38.772Z</time>
      </trkpt>
      <trkpt lat="51.579244" lon="-4.071086">
        <ele>72.657952</ele>
        <time>2026-05-05T14:35:01.857Z</time>
      </trkpt>
      <trkpt lat="51.579120" lon="-4.070969">
        <ele>72.654036</ele>
        <time>2026-05-05T14:35:03.899Z</time>
      </trkpt>
      <trkpt lat="51.579245" lon="-4.070567">
        <ele>72.646425</ele>
        <time>2026-05-05T14:35:08.083Z</time>
      </trkpt>
      <trkpt lat="51.579611" lon="-4.068941">
        <ele>72.617144</ele>
        <time>2026-05-05T14:35:25.518Z</time>
      </trkpt>
      <trkpt lat="51.580011" lon="-4.067350">
        <ele>72.282401</ele>
        <time>2026-05-05T14:35:40.959Z</time>
      </trkpt>
      <trkpt lat="51.580541" lon="-4.065888">
        <ele>71.689789</ele>
        <time>2026-05-05T14:35:54.431Z</time>
      </trkpt>
      <trkpt lat="51.580972" lon="-4.064787">
        <ele>70.758737</ele>
        <time>2026-05-05T14:36:04.019Z</time>
      </trkpt>
      <trkpt lat="51.581123" lon="-4.064497">
        <ele>70.488028</ele>
        <time>2026-05-05T14:36:06.705Z</time>
      </trkpt>
      <trkpt lat="51.582540" lon="-4.062708">
        <ele>68.747339</ele>
        <time>2026-05-05T14:36:27.728Z</time>
      </trkpt>
      <trkpt lat="51.583009" lon="-4.062125">
        <ele>68.287664</ele>
        <time>2026-05-05T14:36:36.973Z</time>
      </trkpt>
      <trkpt lat="51.583406" lon="-4.061501">
        <ele>68.067935</ele>
        <time>2026-05-05T14:36:46.714Z</time>
      </trkpt>
      <trkpt lat="51.583740" lon="-4.060862">
        <ele>67.862492</ele>
        <time>2026-05-05T14:36:55.417Z</time>
      </trkpt>
      <trkpt lat="51.583926" lon="-4.060403">
        <ele>67.727669</ele>
        <time>2026-05-05T14:37:00.013Z</time>
      </trkpt>
      <trkpt lat="51.584256" lon="-4.059690">
        <ele>65.694139</ele>
        <time>2026-05-05T14:37:05.928Z</time>
      </trkpt>
      <trkpt lat="51.584467" lon="-4.059283">
        <ele>63.693405</ele>
        <time>2026-05-05T14:37:09.067Z</time>
      </trkpt>
      <trkpt lat="51.584595" lon="-4.058927">
        <ele>62.140916</ele>
        <time>2026-05-05T14:37:11.396Z</time>
      </trkpt>
      <trkpt lat="51.584692" lon="-4.058468">
        <ele>60.310944</ele>
        <time>2026-05-05T14:37:14.066Z</time>
      </trkpt>
      <trkpt lat="51.584729" lon="-4.058263">
        <ele>59.505183</ele>
        <time>2026-05-05T14:37:15.237Z</time>
      </trkpt>
      <trkpt lat="51.584926" lon="-4.057040">
        <ele>54.612136</ele>
        <time>2026-05-05T14:37:22.065Z</time>
      </trkpt>
      <trkpt lat="51.585182" lon="-4.056379">
        <ele>51.487124</ele>
        <time>2026-05-05T14:37:26.330Z</time>
      </trkpt>
      <trkpt lat="51.585400" lon="-4.056027">
        <ele>49.493140</ele>
        <time>2026-05-05T14:37:29.124Z</time>
      </trkpt>
      <trkpt lat="51.585726" lon="-4.055676">
        <ele>46.960503</ele>
        <time>2026-05-05T14:37:32.789Z</time>
      </trkpt>
      <trkpt lat="51.586525" lon="-4.055285">
        <ele>45.583088</ele>
        <time>2026-05-05T14:37:41.268Z</time>
      </trkpt>
      <trkpt lat="51.586603" lon="-4.055258">
        <ele>45.654331</ele>
        <time>2026-05-05T14:37:42.205Z</time>
      </trkpt>
      <trkpt lat="51.586835" lon="-4.055075">
        <ele>45.885039</ele>
        <time>2026-05-05T14:37:45.765Z</time>
      </trkpt>
      <trkpt lat="51.586960" lon="-4.054977">
        <ele>46.009197</ele>
        <time>2026-05-05T14:37:48.169Z</time>
      </trkpt>
      <trkpt lat="51.587079" lon="-4.054784">
        <ele>46.160053</ele>
        <time>2026-05-05T14:37:51.820Z</time>
      </trkpt>
      <trkpt lat="51.587282" lon="-4.054182">
        <ele>46.540070</ele>
        <time>2026-05-05T14:38:04.532Z</time>
      </trkpt>
      <trkpt lat="51.587308" lon="-4.053648">
        <ele>48.208161</ele>
        <time>2026-05-05T14:38:17.103Z</time>
      </trkpt>
      <trkpt lat="51.587280" lon="-4.053407">
        <ele>49.717016</ele>
        <time>2026-05-05T14:38:24.143Z</time>
      </trkpt>
      <trkpt lat="51.587173" lon="-4.053032">
        <ele>52.256544</ele>
        <time>2026-05-05T14:38:37.569Z</time>
      </trkpt>
      <trkpt lat="51.586983" lon="-4.052586">
        <ele>55.584514</ele>
        <time>2026-05-05T14:38:57.241Z</time>
      </trkpt>
      <trkpt lat="51.586875" lon="-4.052399">
        <ele>57.155737</ele>
        <time>2026-05-05T14:39:07.155Z</time>
      </trkpt>
      <trkpt lat="51.586762" lon="-4.052162">
        <ele>58.994240</ele>
        <time>2026-05-05T14:39:18.803Z</time>
      </trkpt>
      <trkpt lat="51.586682" lon="-4.051925">
        <ele>60.654136</ele>
        <time>2026-05-05T14:39:29.478Z</time>
      </trkpt>
      <trkpt lat="51.586490" lon="-4.050895">
        <ele>66.977880</ele>
        <time>2026-05-05T14:40:10.966Z</time>
      </trkpt>
      <trkpt lat="51.586360" lon="-4.049983">
        <ele>72.121404</ele>
        <time>2026-05-05T14:40:44.495Z</time>
      </trkpt>
      <trkpt lat="51.586221" lon="-4.049443">
        <ele>75.334455</ele>
        <time>2026-05-05T14:41:02.484Z</time>
      </trkpt>
      <trkpt lat="51.585930" lon="-4.048856">
        <ele>79.462438</ele>
        <time>2026-05-05T14:41:22.317Z</time>
      </trkpt>
      <trkpt lat="51.585734" lon="-4.048150">
        <ele>81.404342</ele>
        <time>2026-05-05T14:41:38.875Z</time>
      </trkpt>
      <trkpt lat="51.585550" lon="-4.047277">
        <ele>82.908589</ele>
        <time>2026-05-05T14:41:53.842Z</time>
      </trkpt>
      <trkpt lat="51.585526" lon="-4.047135">
        <ele>83.148719</ele>
        <time>2026-05-05T14:41:55.847Z</time>
      </trkpt>
      <trkpt lat="51.585420" lon="-4.046403">
        <ele>84.375178</ele>
        <time>2026-05-05T14:42:05.214Z</time>
      </trkpt>
      <trkpt lat="51.585404" lon="-4.046012">
        <ele>85.014579</ele>
        <time>2026-05-05T14:42:09.623Z</time>
      </trkpt>
      <trkpt lat="51.585419" lon="-4.045435">
        <ele>84.908540</ele>
        <time>2026-05-05T14:42:15.239Z</time>
      </trkpt>
      <trkpt lat="51.585428" lon="-4.045234">
        <ele>84.808429</ele>
        <time>2026-05-05T14:42:16.946Z</time>
      </trkpt>
      <trkpt lat="51.585520" lon="-4.044371">
        <ele>84.373451</ele>
        <time>2026-05-05T14:42:23.865Z</time>
      </trkpt>
      <trkpt lat="51.585519" lon="-4.044310">
        <ele>84.343137</ele>
        <time>2026-05-05T14:42:24.325Z</time>
      </trkpt>
      <trkpt lat="51.585518" lon="-4.044176">
        <ele>84.276565</ele>
        <time>2026-05-05T14:42:25.360Z</time>
      </trkpt>
      <trkpt lat="51.585492" lon="-4.043830">
        <ele>84.103429</ele>
        <time>2026-05-05T14:42:27.976Z</time>
      </trkpt>
      <trkpt lat="51.585404" lon="-4.041582">
        <ele>82.552204</ele>
        <time>2026-05-05T14:42:43.490Z</time>
      </trkpt>
      <trkpt lat="51.585342" lon="-4.040820">
        <ele>81.944588</ele>
        <time>2026-05-05T14:42:49.129Z</time>
      </trkpt>
      <trkpt lat="51.585429" lon="-4.040458">
        <ele>81.637710</ele>
        <time>2026-05-05T14:42:52.211Z</time>
      </trkpt>
      <trkpt lat="51.585464" lon="-4.040178">
        <ele>81.435416</ele>
        <time>2026-05-05T14:42:54.606Z</time>
      </trkpt>
      <trkpt lat="51.585497" lon="-4.039919">
        <ele>81.563735</ele>
        <time>2026-05-05T14:42:56.939Z</time>
      </trkpt>
      <trkpt lat="51.585555" lon="-4.038412">
        <ele>82.296547</ele>
        <time>2026-05-05T14:43:12.771Z</time>
      </trkpt>
      <trkpt lat="51.585495" lon="-4.036916">
        <ele>83.537267</ele>
        <time>2026-05-05T14:43:32.411Z</time>
      </trkpt>
      <trkpt lat="51.585495" lon="-4.036641">
        <ele>84.026121</ele>
        <time>2026-05-05T14:43:36.429Z</time>
      </trkpt>
      <trkpt lat="51.585512" lon="-4.035417">
        <ele>86.202510</ele>
        <time>2026-05-05T14:43:56.247Z</time>
      </trkpt>
      <trkpt lat="51.585595" lon="-4.034846">
        <ele>87.244954</ele>
        <time>2026-05-05T14:44:07.538Z</time>
      </trkpt>
      <trkpt lat="51.585687" lon="-4.034220">
        <ele>88.268063</ele>
        <time>2026-05-05T14:44:19.918Z</time>
      </trkpt>
      <trkpt lat="51.585949" lon="-4.033048">
        <ele>89.833869</ele>
        <time>2026-05-05T14:44:40.699Z</time>
      </trkpt>
      <trkpt lat="51.586068" lon="-4.032237">
        <ele>90.881435</ele>
        <time>2026-05-05T14:44:51.653Z</time>
      </trkpt>
      <trkpt lat="51.586226" lon="-4.031565">
        <ele>91.616781</ele>
        <time>2026-05-05T14:44:58.647Z</time>
      </trkpt>
      <trkpt lat="51.586543" lon="-4.030409">
        <ele>91.620746</ele>
        <time>2026-05-05T14:45:08.703Z</time>
      </trkpt>
      <trkpt lat="51.586627" lon="-4.030026">
        <ele>91.622021</ele>
        <time>2026-05-05T14:45:12.064Z</time>
      </trkpt>
      <trkpt lat="51.587165" lon="-4.027743">
        <ele>92.421969</ele>
        <time>2026-05-05T14:45:37.510Z</time>
      </trkpt>
      <trkpt lat="51.587798" lon="-4.024785">
        <ele>94.333853</ele>
        <time>2026-05-05T14:46:17.290Z</time>
      </trkpt>
      <trkpt lat="51.587935" lon="-4.024297">
        <ele>94.672233</ele>
        <time>2026-05-05T14:46:23.496Z</time>
      </trkpt>
      <trkpt lat="51.588085" lon="-4.023879">
        <ele>94.977252</ele>
        <time>2026-05-05T14:46:28.725Z</time>
      </trkpt>
      <trkpt lat="51.588555" lon="-4.022850">
        <ele>94.921530</ele>
        <time>2026-05-05T14:46:40.837Z</time>
      </trkpt>
      <trkpt lat="51.589555" lon="-4.020338">
        <ele>93.474918</ele>
        <time>2026-05-05T14:47:04.410Z</time>
      </trkpt>
      <trkpt lat="51.589791" lon="-4.019844">
        <ele>92.905874</ele>
        <time>2026-05-05T14:47:08.911Z</time>
      </trkpt>
      <trkpt lat="51.590521" lon="-4.018708">
        <ele>91.201301</ele>
        <time>2026-05-05T14:47:19.983Z</time>
      </trkpt>
      <trkpt lat="51.590708" lon="-4.018280">
        <ele>90.468638</ele>
        <time>2026-05-05T14:47:23.390Z</time>
      </trkpt>
      <trkpt lat="51.590859" lon="-4.017693">
        <ele>89.579029</ele>
        <time>2026-05-05T14:47:27.546Z</time>
      </trkpt>
      <trkpt lat="51.590933" lon="-4.017036">
        <ele>88.644080</ele>
        <time>2026-05-05T14:47:31.976Z</time>
      </trkpt>
      <trkpt lat="51.591064" lon="-4.016428">
        <ele>87.741751</ele>
        <time>2026-05-05T14:47:36.353Z</time>
      </trkpt>
      <trkpt lat="51.591127" lon="-4.016163">
        <ele>87.310058</ele>
        <time>2026-05-05T14:47:38.311Z</time>
      </trkpt>
      <trkpt lat="51.591282" lon="-4.015650">
        <ele>86.442154</ele>
        <time>2026-05-05T14:47:42.295Z</time>
      </trkpt>
      <trkpt lat="51.591370" lon="-4.015338">
        <ele>85.920839</ele>
        <time>2026-05-05T14:47:44.670Z</time>
      </trkpt>
      <trkpt lat="51.591623" lon="-4.014560">
        <ele>84.584820</ele>
        <time>2026-05-05T14:47:50.592Z</time>
      </trkpt>
      <trkpt lat="51.591728" lon="-4.014165">
        <ele>83.931158</ele>
        <time>2026-05-05T14:47:53.356Z</time>
      </trkpt>
      <trkpt lat="51.591776" lon="-4.013973">
        <ele>83.616282</ele>
        <time>2026-05-05T14:47:54.665Z</time>
      </trkpt>
      <trkpt lat="51.592033" lon="-4.012982">
        <ele>80.550534</ele>
        <time>2026-05-05T14:48:01.189Z</time>
      </trkpt>
      <trkpt lat="51.592228" lon="-4.012414">
        <ele>78.531390</ele>
        <time>2026-05-05T14:48:04.990Z</time>
      </trkpt>
      <trkpt lat="51.592279" lon="-4.012311">
        <ele>78.121586</ele>
        <time>2026-05-05T14:48:05.758Z</time>
      </trkpt>
      <trkpt lat="51.592509" lon="-4.011976">
        <ele>76.568127</ele>
        <time>2026-05-05T14:48:08.645Z</time>
      </trkpt>
      <trkpt lat="51.593152" lon="-4.011244">
        <ele>72.032184</ele>
        <time>2026-05-05T14:48:15.808Z</time>
      </trkpt>
      <trkpt lat="51.593271" lon="-4.011024">
        <ele>70.812535</ele>
        <time>2026-05-05T14:48:17.450Z</time>
      </trkpt>
      <trkpt lat="51.593409" lon="-4.010665">
        <ele>69.047417</ele>
        <time>2026-05-05T14:48:19.831Z</time>
      </trkpt>
      <trkpt lat="51.593484" lon="-4.010389">
        <ele>67.787873</ele>
        <time>2026-05-05T14:48:21.515Z</time>
      </trkpt>
      <trkpt lat="51.593527" lon="-4.010107">
        <ele>66.573816</ele>
        <time>2026-05-05T14:48:23.129Z</time>
      </trkpt>
      <trkpt lat="51.593534" lon="-4.010066">
        <ele>66.396036</ele>
        <time>2026-05-05T14:48:23.359Z</time>
      </trkpt>
      <trkpt lat="51.593720" lon="-4.009019">
        <ele>61.903920</ele>
        <time>2026-05-05T14:48:29.386Z</time>
      </trkpt>
      <trkpt lat="51.593753" lon="-4.008826">
        <ele>61.195586</ele>
        <time>2026-05-05T14:48:30.517Z</time>
      </trkpt>
      <trkpt lat="51.593779" lon="-4.008681">
        <ele>60.661552</ele>
        <time>2026-05-05T14:48:31.369Z</time>
      </trkpt>
      <trkpt lat="51.593829" lon="-4.008305">
        <ele>59.300921</ele>
        <time>2026-05-05T14:48:33.590Z</time>
      </trkpt>
      <trkpt lat="51.593858" lon="-4.007988">
        <ele>58.167108</ele>
        <time>2026-05-05T14:48:35.480Z</time>
      </trkpt>
      <trkpt lat="51.593866" lon="-4.007855">
        <ele>57.694282</ele>
        <time>2026-05-05T14:48:36.268Z</time>
      </trkpt>
      <trkpt lat="51.593875" lon="-4.007115">
        <ele>55.075266</ele>
        <time>2026-05-05T14:48:40.541Z</time>
      </trkpt>
      <trkpt lat="51.593871" lon="-4.006831">
        <ele>54.070064</ele>
        <time>2026-05-05T14:48:42.179Z</time>
      </trkpt>
      <trkpt lat="51.593856" lon="-4.006202">
        <ele>51.827062</ele>
        <time>2026-05-05T14:48:45.858Z</time>
      </trkpt>
      <trkpt lat="51.593858" lon="-4.005614">
        <ele>49.532025</ele>
        <time>2026-05-05T14:48:49.276Z</time>
      </trkpt>
      <trkpt lat="51.593872" lon="-4.005385">
        <ele>48.633905</ele>
        <time>2026-05-05T14:48:50.594Z</time>
      </trkpt>
      <trkpt lat="51.594019" lon="-4.004699">
        <ele>45.801596</ele>
        <time>2026-05-05T14:48:54.688Z</time>
      </trkpt>
      <trkpt lat="51.594072" lon="-4.004511">
        <ele>44.995802</ele>
        <time>2026-05-05T14:48:55.837Z</time>
      </trkpt>
      <trkpt lat="51.594658" lon="-4.002426">
        <ele>36.089598</ele>
        <time>2026-05-05T14:49:08.660Z</time>
      </trkpt>
      <trkpt lat="51.594988" lon="-4.001082">
        <ele>30.480415</ele>
        <time>2026-05-05T14:49:16.946Z</time>
      </trkpt>
      <trkpt lat="51.595010" lon="-4.000992">
        <ele>30.105027</ele>
        <time>2026-05-05T14:49:17.505Z</time>
      </trkpt>
      <trkpt lat="51.595105" lon="-4.000558">
        <ele>28.147572</ele>
        <time>2026-05-05T14:49:20.136Z</time>
      </trkpt>
      <trkpt lat="51.595125" lon="-4.000418">
        <ele>27.505935</ele>
        <time>2026-05-05T14:49:20.948Z</time>
      </trkpt>
      <trkpt lat="51.595206" lon="-3.999847">
        <ele>24.889892</ele>
        <time>2026-05-05T14:49:24.245Z</time>
      </trkpt>
      <trkpt lat="51.595263" lon="-3.999001">
        <ele>21.089047</ele>
        <time>2026-05-05T14:49:28.951Z</time>
      </trkpt>
      <trkpt lat="51.595308" lon="-3.998092">
        <ele>17.016104</ele>
        <time>2026-05-05T14:49:33.927Z</time>
      </trkpt>
      <trkpt lat="51.595330" lon="-3.997663">
        <ele>15.502071</ele>
        <time>2026-05-05T14:49:36.289Z</time>
      </trkpt>
      <trkpt lat="51.595364" lon="-3.997358">
        <ele>14.513410</ele>
        <time>2026-05-05T14:49:38.006Z</time>
      </trkpt>
      <trkpt lat="51.595427" lon="-3.996898">
        <ele>13.010515</ele>
        <time>2026-05-05T14:49:40.654Z</time>
      </trkpt>
      <trkpt lat="51.595487" lon="-3.996667">
        <ele>12.211670</ele>
        <time>2026-05-05T14:49:42.083Z</time>
      </trkpt>
      <trkpt lat="51.595525" lon="-3.996374">
        <ele>11.256687</ele>
        <time>2026-05-05T14:49:43.811Z</time>
      </trkpt>
      <trkpt lat="51.595610" lon="-3.996175">
        <ele>10.486166</ele>
        <time>2026-05-05T14:49:45.231Z</time>
      </trkpt>
      <trkpt lat="51.595688" lon="-3.996095">
        <ele>10.011154</ele>
        <time>2026-05-05T14:49:46.134Z</time>
      </trkpt>
      <trkpt lat="51.595773" lon="-3.996008">
        <ele>9.493821</ele>
        <time>2026-05-05T14:49:47.143Z</time>
      </trkpt>
      <trkpt lat="51.596055" lon="-3.995836">
        <ele>7.944991</ele>
        <time>2026-05-05T14:49:50.272Z</time>
      </trkpt>
      <trkpt lat="51.596162" lon="-3.995763">
        <ele>7.348121</ele>
        <time>2026-05-05T14:49:51.526Z</time>
      </trkpt>
      <trkpt lat="51.596388" lon="-3.995624">
        <ele>7.153315</ele>
        <time>2026-05-05T14:49:54.323Z</time>
      </trkpt>
      <trkpt lat="51.596537" lon="-3.995532">
        <ele>7.061200</ele>
        <time>2026-05-05T14:49:56.281Z</time>
      </trkpt>
      <trkpt lat="51.596925" lon="-3.995414">
        <ele>6.833278</ele>
        <time>2026-05-05T14:50:01.449Z</time>
      </trkpt>
      <trkpt lat="51.597846" lon="-3.995064">
        <ele>6.287047</ele>
        <time>2026-05-05T14:50:15.874Z</time>
      </trkpt>
      <trkpt lat="51.597985" lon="-3.994937">
        <ele>6.260132</ele>
        <time>2026-05-05T14:50:18.411Z</time>
      </trkpt>
      <trkpt lat="51.598120" lon="-3.994886">
        <ele>6.278812</ele>
        <time>2026-05-05T14:50:20.556Z</time>
      </trkpt>
      <trkpt lat="51.598322" lon="-3.994768">
        <ele>6.307759</ele>
        <time>2026-05-05T14:50:23.915Z</time>
      </trkpt>
      <trkpt lat="51.598659" lon="-3.994499">
        <ele>6.358429</ele>
        <time>2026-05-05T14:50:29.916Z</time>
      </trkpt>
      <trkpt lat="51.598675" lon="-3.994486">
        <ele>6.360843</ele>
        <time>2026-05-05T14:50:30.204Z</time>
      </trkpt>
      <trkpt lat="51.599435" lon="-3.993801">
        <ele>6.478174</ele>
        <time>2026-05-05T14:50:43.728Z</time>
      </trkpt>
      <trkpt lat="51.599573" lon="-3.993676">
        <ele>6.465053</ele>
        <time>2026-05-05T14:50:45.956Z</time>
      </trkpt>
      <trkpt lat="51.599925" lon="-3.993358">
        <ele>6.321082</ele>
        <time>2026-05-05T14:50:51.418Z</time>
      </trkpt>
      <trkpt lat="51.600369" lon="-3.992907">
        <ele>6.133825</ele>
        <time>2026-05-05T14:50:58.574Z</time>
      </trkpt>
      <trkpt lat="51.600674" lon="-3.992523">
        <ele>5.995720</ele>
        <time>2026-05-05T14:51:03.598Z</time>
      </trkpt>
      <trkpt lat="51.600893" lon="-3.992240">
        <ele>5.895555</ele>
        <time>2026-05-05T14:51:07.221Z</time>
      </trkpt>
      <trkpt lat="51.601729" lon="-3.991144">
        <ele>5.871691</ele>
        <time>2026-05-05T14:51:22.500Z</time>
      </trkpt>
      <trkpt lat="51.602342" lon="-3.990342">
        <ele>5.891043</ele>
        <time>2026-05-05T14:51:35.076Z</time>
      </trkpt>
      <trkpt lat="51.602432" lon="-3.990231">
        <ele>5.917191</ele>
        <time>2026-05-05T14:51:36.970Z</time>
      </trkpt>
      <trkpt lat="51.602469" lon="-3.990184">
        <ele>5.940019</ele>
        <time>2026-05-05T14:51:37.793Z</time>
      </trkpt>
      <trkpt lat="51.602493" lon="-3.990156">
        <ele>5.954374</ele>
        <time>2026-05-05T14:51:38.301Z</time>
      </trkpt>
      <trkpt lat="51.603617" lon="-3.988678">
        <ele>6.657284</ele>
        <time>2026-05-05T14:52:02.779Z</time>
      </trkpt>
      <trkpt lat="51.603863" lon="-3.988308">
        <ele>6.800500</ele>
        <time>2026-05-05T14:52:08.385Z</time>
      </trkpt>
      <trkpt lat="51.604102" lon="-3.987874">
        <ele>6.913819</ele>
        <time>2026-05-05T14:52:14.337Z</time>
      </trkpt>
      <trkpt lat="51.604298" lon="-3.987419">
        <ele>7.021998</ele>
        <time>2026-05-05T14:52:19.952Z</time>
      </trkpt>
      <trkpt lat="51.604650" lon="-3.986477">
        <ele>7.236773</ele>
        <time>2026-05-05T14:52:31.152Z</time>
      </trkpt>
      <trkpt lat="51.604979" lon="-3.985600">
        <ele>7.350187</ele>
        <time>2026-05-05T14:52:40.639Z</time>
      </trkpt>
      <trkpt lat="51.605094" lon="-3.985365">
        <ele>7.361430</ele>
        <time>2026-05-05T14:52:43.254Z</time>
      </trkpt>
      <trkpt lat="51.605519" lon="-3.984206">
        <ele>7.412012</ele>
        <time>2026-05-05T14:52:55.343Z</time>
      </trkpt>
      <trkpt lat="51.605557" lon="-3.984106">
        <ele>7.416418</ele>
        <time>2026-05-05T14:52:56.473Z</time>
      </trkpt>
      <trkpt lat="51.605614" lon="-3.983941">
        <ele>7.423514</ele>
        <time>2026-05-05T14:52:58.262Z</time>
      </trkpt>
      <trkpt lat="51.605672" lon="-3.983780">
        <ele>7.430508</ele>
        <time>2026-05-05T14:53:00.008Z</time>
      </trkpt>
      <trkpt lat="51.606529" lon="-3.981412">
        <ele>7.946857</ele>
        <time>2026-05-05T14:53:28.353Z</time>
      </trkpt>
      <trkpt lat="51.606528" lon="-3.981275">
        <ele>7.974374</ele>
        <time>2026-05-05T14:53:29.681Z</time>
      </trkpt>
      <trkpt lat="51.606632" lon="-3.980985">
        <ele>7.998083</ele>
        <time>2026-05-05T14:53:32.984Z</time>
      </trkpt>
      <trkpt lat="51.607580" lon="-3.978425">
        <ele>7.316484</ele>
        <time>2026-05-05T14:53:58.202Z</time>
      </trkpt>
      <trkpt lat="51.608532" lon="-3.975805">
        <ele>5.566882</ele>
        <time>2026-05-05T14:54:21.063Z</time>
      </trkpt>
      <trkpt lat="51.608927" lon="-3.974717">
        <ele>4.971209</ele>
        <time>2026-05-05T14:54:30.588Z</time>
      </trkpt>
      <trkpt lat="51.609245" lon="-3.973816">
        <ele>4.481384</ele>
        <time>2026-05-05T14:54:38.914Z</time>
      </trkpt>
      <trkpt lat="51.609601" lon="-3.972811">
        <ele>4.470195</ele>
        <time>2026-05-05T14:54:49.257Z</time>
      </trkpt>
      <trkpt lat="51.609753" lon="-3.972573">
        <ele>4.514610</ele>
        <time>2026-05-05T14:54:52.394Z</time>
      </trkpt>
      <trkpt lat="51.609822" lon="-3.972633">
        <ele>4.531038</ele>
        <time>2026-05-05T14:54:53.729Z</time>
      </trkpt>
      <trkpt lat="51.610029" lon="-3.972085">
        <ele>4.614485</ele>
        <time>2026-05-05T14:55:00.104Z</time>
      </trkpt>
      <trkpt lat="51.610113" lon="-3.971768">
        <ele>4.659323</ele>
        <time>2026-05-05T14:55:03.840Z</time>
      </trkpt>
      <trkpt lat="51.610769" lon="-3.969893">
        <ele>5.298966</ele>
        <time>2026-05-05T14:55:27.448Z</time>
      </trkpt>
      <trkpt lat="51.611181" lon="-3.968780">
        <ele>5.759122</ele>
        <time>2026-05-05T14:55:41.142Z</time>
      </trkpt>
      <trkpt lat="51.611594" lon="-3.967591">
        <ele>5.759973</ele>
        <time>2026-05-05T14:55:53.632Z</time>
      </trkpt>
      <trkpt lat="51.611646" lon="-3.967404">
        <ele>5.759973</ele>
        <time>2026-05-05T14:55:55.383Z</time>
      </trkpt>
    </trkseg>
  </trk>
</gpx>